<?xml version="1.0" encoding="UTF-8"?>
<gpx version="1.1" creator="2bulu-scraper" xmlns="http://www.topografix.com/GPX/1/1">
  <metadata><name>泸州纳溪区</name><desc>source: 2bulu.com trackId=77520972; exported 2026-09-01T14:52:18.598Z</desc>
    <bounds minlat="28.7226106" minlon="105.2716091" maxlat="28.741391" maxlon="105.2867087"/>
    <link href="https://www.2bulu.com/track/t-ib6Kfoel5c3p%252FR2KBg5Tzw%253D%253D.htm"><text>2bulu 源页面</text></link>
  </metadata>
  <wpt lat="28.7408711" lon="105.2850264"><ele>223</ele><name>
        </name></wpt>
  <wpt lat="28.7399799" lon="105.2851285"><ele>239</ele><name>
        </name></wpt>
  <wpt lat="28.7393294" lon="105.285029"><ele>258</ele><name>
        </name></wpt>
  <wpt lat="28.7392344" lon="105.2850336"><ele>261</ele><name>
        </name></wpt>
  <wpt lat="28.7375013" lon="105.2851648"><ele>328</ele><name>
        </name></wpt>
  <wpt lat="28.7362202" lon="105.2855253"><ele>373</ele><name>
        </name></wpt>
  <wpt lat="28.7345123" lon="105.2779747"><ele>397</ele><name>
        </name></wpt>
  <wpt lat="28.7345123" lon="105.2779747"><ele>397</ele><name>
        </name></wpt>
  <wpt lat="28.7334196" lon="105.2765213"><ele>393</ele><name>
        </name></wpt>
  <wpt lat="28.7309446" lon="105.2740002"><ele>394</ele><name>
        </name></wpt>
  <wpt lat="28.7226996" lon="105.2779903"><ele>418</ele><name>
        </name></wpt>
  <wpt lat="28.7226106" lon="105.2781517"><ele>415</ele><name>
        </name></wpt>
  <wpt lat="28.7233955" lon="105.2799865"><ele>407</ele><name>
        </name></wpt>
  <wpt lat="28.7234418" lon="105.2801991"><ele>406</ele><name>
        </name></wpt>
  <trk><name>泸州纳溪区</name>
      <trkseg>
        <trkpt lat="28.741391" lon="105.2850192"><ele>219.21</ele><time>2026-01-09T17:41:04.000Z</time></trkpt>
        <trkpt lat="28.7413287" lon="105.2851248"><ele>219.21</ele><time>2026-01-09T17:44:04.000Z</time></trkpt>
        <trkpt lat="28.7412312" lon="105.2851377"><ele>216.78</ele><time>2026-01-09T17:44:14.000Z</time></trkpt>
        <trkpt lat="28.7411425" lon="105.2851061"><ele>215.74</ele><time>2026-01-09T17:45:04.000Z</time></trkpt>
        <trkpt lat="28.7410525" lon="105.2850976"><ele>217.21</ele><time>2026-01-09T17:45:18.000Z</time></trkpt>
        <trkpt lat="28.7409632" lon="105.2850582"><ele>218.76</ele><time>2026-01-09T17:45:42.000Z</time></trkpt>
        <trkpt lat="28.7408711" lon="105.2850264"><ele>220.01</ele><time>2026-01-09T17:45:54.000Z</time></trkpt>
        <trkpt lat="28.7407751" lon="105.2850058"><ele>221.43</ele><time>2026-01-09T17:46:06.000Z</time></trkpt>
        <trkpt lat="28.7406812" lon="105.2850118"><ele>222.64</ele><time>2026-01-09T17:46:16.000Z</time></trkpt>
        <trkpt lat="28.7405879" lon="105.2850117"><ele>224.08</ele><time>2026-01-09T17:46:30.000Z</time></trkpt>
        <trkpt lat="28.7404961" lon="105.285025"><ele>225.93</ele><time>2026-01-09T17:46:42.000Z</time></trkpt>
        <trkpt lat="28.7404134" lon="105.2850709"><ele>227.71</ele><time>2026-01-09T17:47:44.000Z</time></trkpt>
        <trkpt lat="28.7403223" lon="105.2851269"><ele>229.67</ele><time>2026-01-09T17:47:58.000Z</time></trkpt>
        <trkpt lat="28.7402203" lon="105.2851463"><ele>231.06</ele><time>2026-01-09T17:48:12.000Z</time></trkpt>
        <trkpt lat="28.7401226" lon="105.2851397"><ele>232.59</ele><time>2026-01-09T17:48:26.000Z</time></trkpt>
        <trkpt lat="28.7400252" lon="105.2851353"><ele>234.07</ele><time>2026-01-09T17:48:38.000Z</time></trkpt>
        <trkpt lat="28.7399799" lon="105.2851285"><ele>235.56</ele><time>2026-01-09T17:48:44.000Z</time></trkpt>
        <trkpt lat="28.7398987" lon="105.2851188"><ele>237</ele><time>2026-01-09T17:49:00.000Z</time></trkpt>
        <trkpt lat="28.7397982" lon="105.2851058"><ele>238.55</ele><time>2026-01-09T17:49:12.000Z</time></trkpt>
        <trkpt lat="28.7397047" lon="105.2850817"><ele>239.83</ele><time>2026-01-09T17:49:28.000Z</time></trkpt>
        <trkpt lat="28.7396115" lon="105.2850685"><ele>242.08</ele><time>2026-01-09T17:49:48.000Z</time></trkpt>
        <trkpt lat="28.7395185" lon="105.2850572"><ele>244.66</ele><time>2026-01-09T17:50:04.000Z</time></trkpt>
        <trkpt lat="28.7394261" lon="105.28503"><ele>247.14</ele><time>2026-01-09T17:50:20.000Z</time></trkpt>
        <trkpt lat="28.7393294" lon="105.285029"><ele>250.1</ele><time>2026-01-09T17:50:50.000Z</time></trkpt>
        <trkpt lat="28.7392344" lon="105.2850336"><ele>253.69</ele><time>2026-01-09T17:51:12.000Z</time></trkpt>
        <trkpt lat="28.7391383" lon="105.285024"><ele>257.03</ele><time>2026-01-09T17:51:36.000Z</time></trkpt>
        <trkpt lat="28.7390447" lon="105.2850145"><ele>260.77</ele><time>2026-01-09T17:51:52.000Z</time></trkpt>
        <trkpt lat="28.7389516" lon="105.2850024"><ele>264.39</ele><time>2026-01-09T17:52:08.000Z</time></trkpt>
        <trkpt lat="28.738857" lon="105.2849865"><ele>267.81</ele><time>2026-01-09T17:52:32.000Z</time></trkpt>
        <trkpt lat="28.7387652" lon="105.2849731"><ele>271.87</ele><time>2026-01-09T17:52:56.000Z</time></trkpt>
        <trkpt lat="28.7386756" lon="105.2849872"><ele>276.3</ele><time>2026-01-09T17:53:18.000Z</time></trkpt>
        <trkpt lat="28.738586" lon="105.2849873"><ele>280.01</ele><time>2026-01-09T17:53:38.000Z</time></trkpt>
        <trkpt lat="28.7384947" lon="105.2849969"><ele>282.47</ele><time>2026-01-09T17:54:02.000Z</time></trkpt>
        <trkpt lat="28.7384097" lon="105.2850331"><ele>286.03</ele><time>2026-01-09T17:54:32.000Z</time></trkpt>
        <trkpt lat="28.7383203" lon="105.2850592"><ele>289.11</ele><time>2026-01-09T17:55:00.000Z</time></trkpt>
        <trkpt lat="28.7382287" lon="105.2850918"><ele>292.56</ele><time>2026-01-09T17:56:52.000Z</time></trkpt>
        <trkpt lat="28.7381425" lon="105.2851313"><ele>296.84</ele><time>2026-01-09T17:57:20.000Z</time></trkpt>
        <trkpt lat="28.7380557" lon="105.2851662"><ele>300.14</ele><time>2026-01-09T17:57:58.000Z</time></trkpt>
        <trkpt lat="28.7379734" lon="105.2852144"><ele>303.3</ele><time>2026-01-09T17:58:46.000Z</time></trkpt>
        <trkpt lat="28.7378856" lon="105.2852567"><ele>305.31</ele><time>2026-01-09T17:59:32.000Z</time></trkpt>
        <trkpt lat="28.7377867" lon="105.2852719"><ele>307.39</ele><time>2026-01-09T18:00:00.000Z</time></trkpt>
        <trkpt lat="28.7377201" lon="105.2852039"><ele>309.45</ele><time>2026-01-09T18:00:38.000Z</time></trkpt>
        <trkpt lat="28.7376307" lon="105.2851909"><ele>312.62</ele><time>2026-01-09T18:01:36.000Z</time></trkpt>
        <trkpt lat="28.7375412" lon="105.285228"><ele>317.34</ele><time>2026-01-09T18:01:56.000Z</time></trkpt>
        <trkpt lat="28.7375013" lon="105.2851648"><ele>320.84</ele><time>2026-01-09T18:02:24.000Z</time></trkpt>
        <trkpt lat="28.7374111" lon="105.2851149"><ele>324</ele><time>2026-01-09T18:03:48.000Z</time></trkpt>
        <trkpt lat="28.7373135" lon="105.2851257"><ele>331.33</ele><time>2026-01-09T18:04:24.000Z</time></trkpt>
        <trkpt lat="28.7372152" lon="105.2851339"><ele>336.64</ele><time>2026-01-09T18:04:46.000Z</time></trkpt>
        <trkpt lat="28.7371234" lon="105.2851591"><ele>341.24</ele><time>2026-01-09T18:06:06.000Z</time></trkpt>
        <trkpt lat="28.7370252" lon="105.2851545"><ele>348.12</ele><time>2026-01-09T18:06:32.000Z</time></trkpt>
        <trkpt lat="28.7369237" lon="105.2851549"><ele>352.79</ele><time>2026-01-09T18:06:46.000Z</time></trkpt>
        <trkpt lat="28.7368273" lon="105.2851373"><ele>356.21</ele><time>2026-01-09T18:07:18.000Z</time></trkpt>
        <trkpt lat="28.7367442" lon="105.2851778"><ele>360.03</ele><time>2026-01-09T18:07:30.000Z</time></trkpt>
        <trkpt lat="28.7366419" lon="105.2852116"><ele>362.67</ele><time>2026-01-09T18:07:44.000Z</time></trkpt>
        <trkpt lat="28.73655" lon="105.2852692"><ele>365.04</ele><time>2026-01-09T18:07:56.000Z</time></trkpt>
        <trkpt lat="28.7364657" lon="105.285333"><ele>366.99</ele><time>2026-01-09T18:08:08.000Z</time></trkpt>
        <trkpt lat="28.7363851" lon="105.2854055"><ele>368.36</ele><time>2026-01-09T18:08:21.000Z</time></trkpt>
        <trkpt lat="28.7363024" lon="105.2854712"><ele>369.3</ele><time>2026-01-09T18:08:32.000Z</time></trkpt>
        <trkpt lat="28.7362202" lon="105.2855253"><ele>370.32</ele><time>2026-01-09T18:08:42.000Z</time></trkpt>
        <trkpt lat="28.7361383" lon="105.2855698"><ele>371.63</ele><time>2026-01-09T18:08:56.000Z</time></trkpt>
        <trkpt lat="28.7360606" lon="105.2856209"><ele>372.52</ele><time>2026-01-09T18:09:12.000Z</time></trkpt>
        <trkpt lat="28.7359704" lon="105.2856463"><ele>373.38</ele><time>2026-01-09T18:09:36.000Z</time></trkpt>
        <trkpt lat="28.7358972" lon="105.2857225"><ele>374.55</ele><time>2026-01-09T18:09:48.000Z</time></trkpt>
        <trkpt lat="28.7358151" lon="105.2857666"><ele>375.59</ele><time>2026-01-09T18:10:38.000Z</time></trkpt>
        <trkpt lat="28.735791" lon="105.2858677"><ele>378.24</ele><time>2026-01-09T18:10:52.000Z</time></trkpt>
        <trkpt lat="28.7357482" lon="105.285973"><ele>379.27</ele><time>2026-01-09T18:11:04.000Z</time></trkpt>
        <trkpt lat="28.7357022" lon="105.2860716"><ele>379.9</ele><time>2026-01-09T18:11:14.000Z</time></trkpt>
        <trkpt lat="28.7356671" lon="105.2861772"><ele>380.45</ele><time>2026-01-09T18:11:28.000Z</time></trkpt>
        <trkpt lat="28.7356113" lon="105.2862811"><ele>380.7</ele><time>2026-01-09T18:12:14.000Z</time></trkpt>
        <trkpt lat="28.7355726" lon="105.2863869"><ele>382.05</ele><time>2026-01-09T18:12:28.000Z</time></trkpt>
        <trkpt lat="28.7355476" lon="105.2864948"><ele>383.29</ele><time>2026-01-09T18:12:44.000Z</time></trkpt>
        <trkpt lat="28.7355017" lon="105.2865954"><ele>384.39</ele><time>2026-01-09T18:13:00.000Z</time></trkpt>
        <trkpt lat="28.7354201" lon="105.286663"><ele>386.47</ele><time>2026-01-09T18:13:12.000Z</time></trkpt>
        <trkpt lat="28.7353827" lon="105.2867087"><ele>388.53</ele><time>2026-01-09T18:13:46.000Z</time></trkpt>
        <trkpt lat="28.7352965" lon="105.2866948"><ele>389.52</ele><time>2026-01-09T18:15:42.000Z</time></trkpt>
        <trkpt lat="28.7352087" lon="105.2866678"><ele>392.04</ele><time>2026-01-09T18:15:50.000Z</time></trkpt>
        <trkpt lat="28.7351121" lon="105.2866395"><ele>394.07</ele><time>2026-01-09T18:16:00.000Z</time></trkpt>
        <trkpt lat="28.7350212" lon="105.2865987"><ele>394.93</ele><time>2026-01-09T18:16:09.000Z</time></trkpt>
        <trkpt lat="28.7349327" lon="105.2865445"><ele>395.27</ele><time>2026-01-09T18:16:16.000Z</time></trkpt>
        <trkpt lat="28.7348411" lon="105.2864872"><ele>395.52</ele><time>2026-01-09T18:16:24.000Z</time></trkpt>
        <trkpt lat="28.7347561" lon="105.2864332"><ele>395.62</ele><time>2026-01-09T18:16:32.000Z</time></trkpt>
        <trkpt lat="28.734667" lon="105.2863833"><ele>395.2</ele><time>2026-01-09T18:16:40.000Z</time></trkpt>
        <trkpt lat="28.7345739" lon="105.2863503"><ele>394.73</ele><time>2026-01-09T18:16:48.000Z</time></trkpt>
        <trkpt lat="28.7344816" lon="105.2863368"><ele>394.62</ele><time>2026-01-09T18:16:56.000Z</time></trkpt>
        <trkpt lat="28.7343834" lon="105.2863404"><ele>394.94</ele><time>2026-01-09T18:17:06.000Z</time></trkpt>
        <trkpt lat="28.7342828" lon="105.2863426"><ele>395.08</ele><time>2026-01-09T18:17:16.000Z</time></trkpt>
        <trkpt lat="28.7341894" lon="105.2863186"><ele>395.04</ele><time>2026-01-09T18:17:24.000Z</time></trkpt>
        <trkpt lat="28.734096" lon="105.286269"><ele>394.96</ele><time>2026-01-09T18:17:34.000Z</time></trkpt>
        <trkpt lat="28.734008" lon="105.2861899"><ele>395.64</ele><time>2026-01-09T18:17:46.000Z</time></trkpt>
        <trkpt lat="28.7339313" lon="105.2861036"><ele>396.49</ele><time>2026-01-09T18:17:56.000Z</time></trkpt>
        <trkpt lat="28.7338532" lon="105.286023"><ele>397.43</ele><time>2026-01-09T18:18:06.000Z</time></trkpt>
        <trkpt lat="28.7338091" lon="105.2859184"><ele>398.57</ele><time>2026-01-09T18:18:14.000Z</time></trkpt>
        <trkpt lat="28.733781" lon="105.285808"><ele>399.66</ele><time>2026-01-09T18:18:22.000Z</time></trkpt>
        <trkpt lat="28.7337497" lon="105.2857062"><ele>400.68</ele><time>2026-01-09T18:18:30.000Z</time></trkpt>
        <trkpt lat="28.7336945" lon="105.2856254"><ele>401.43</ele><time>2026-01-09T18:18:38.000Z</time></trkpt>
        <trkpt lat="28.7336363" lon="105.2855424"><ele>401.82</ele><time>2026-01-09T18:18:46.000Z</time></trkpt>
        <trkpt lat="28.7335733" lon="105.2854601"><ele>402.15</ele><time>2026-01-09T18:18:54.000Z</time></trkpt>
        <trkpt lat="28.7335171" lon="105.2853745"><ele>400.76</ele><time>2026-01-09T18:19:02.000Z</time></trkpt>
        <trkpt lat="28.7334348" lon="105.285298"><ele>397.4</ele><time>2026-01-09T18:19:12.000Z</time></trkpt>
        <trkpt lat="28.7333688" lon="105.2852148"><ele>400.83</ele><time>2026-01-09T18:19:20.000Z</time></trkpt>
        <trkpt lat="28.7333661" lon="105.2851089"><ele>404.99</ele><time>2026-01-09T18:19:36.000Z</time></trkpt>
        <trkpt lat="28.7334422" lon="105.2850359"><ele>405.13</ele><time>2026-01-09T18:19:45.000Z</time></trkpt>
        <trkpt lat="28.7335413" lon="105.2849799"><ele>404.94</ele><time>2026-01-09T18:19:54.000Z</time></trkpt>
        <trkpt lat="28.733644" lon="105.2849357"><ele>405.16</ele><time>2026-01-09T18:20:02.000Z</time></trkpt>
        <trkpt lat="28.7337108" lon="105.2848531"><ele>405.22</ele><time>2026-01-09T18:20:18.000Z</time></trkpt>
        <trkpt lat="28.7337134" lon="105.2847499"><ele>405.42</ele><time>2026-01-09T18:20:28.000Z</time></trkpt>
        <trkpt lat="28.7337251" lon="105.2846363"><ele>405.75</ele><time>2026-01-09T18:20:40.000Z</time></trkpt>
        <trkpt lat="28.7337641" lon="105.2845401"><ele>406.38</ele><time>2026-01-09T18:20:50.000Z</time></trkpt>
        <trkpt lat="28.7337907" lon="105.284421"><ele>407.63</ele><time>2026-01-09T18:21:00.000Z</time></trkpt>
        <trkpt lat="28.7338165" lon="105.2843153"><ele>408.85</ele><time>2026-01-09T18:21:08.000Z</time></trkpt>
        <trkpt lat="28.7338385" lon="105.2842057"><ele>409.97</ele><time>2026-01-09T18:21:20.000Z</time></trkpt>
        <trkpt lat="28.7338702" lon="105.2841028"><ele>410.43</ele><time>2026-01-09T18:22:00.000Z</time></trkpt>
        <trkpt lat="28.7338925" lon="105.2839856"><ele>410.83</ele><time>2026-01-09T18:22:08.000Z</time></trkpt>
        <trkpt lat="28.7338985" lon="105.2838608"><ele>411.3</ele><time>2026-01-09T18:22:18.000Z</time></trkpt>
        <trkpt lat="28.7339173" lon="105.2837537"><ele>411.72</ele><time>2026-01-09T18:22:30.000Z</time></trkpt>
        <trkpt lat="28.7339854" lon="105.2836657"><ele>411.99</ele><time>2026-01-09T18:22:38.000Z</time></trkpt>
        <trkpt lat="28.734042" lon="105.2835592"><ele>412.55</ele><time>2026-01-09T18:22:46.000Z</time></trkpt>
        <trkpt lat="28.7340571" lon="105.2834543"><ele>412.92</ele><time>2026-01-09T18:22:54.000Z</time></trkpt>
        <trkpt lat="28.7340521" lon="105.2833396"><ele>413.17</ele><time>2026-01-09T18:23:06.000Z</time></trkpt>
        <trkpt lat="28.7340567" lon="105.2832263"><ele>413.48</ele><time>2026-01-09T18:23:14.000Z</time></trkpt>
        <trkpt lat="28.7340682" lon="105.2831161"><ele>413.93</ele><time>2026-01-09T18:23:22.000Z</time></trkpt>
        <trkpt lat="28.7340602" lon="105.2830087"><ele>414.28</ele><time>2026-01-09T18:23:30.000Z</time></trkpt>
        <trkpt lat="28.734046" lon="105.2828956"><ele>414.54</ele><time>2026-01-09T18:23:38.000Z</time></trkpt>
        <trkpt lat="28.7340356" lon="105.282768"><ele>414.58</ele><time>2026-01-09T18:23:48.000Z</time></trkpt>
        <trkpt lat="28.7340862" lon="105.2826717"><ele>414.62</ele><time>2026-01-09T18:23:57.000Z</time></trkpt>
        <trkpt lat="28.734182" lon="105.2826117"><ele>414.8</ele><time>2026-01-09T18:24:04.000Z</time></trkpt>
        <trkpt lat="28.734288" lon="105.2825774"><ele>412.67</ele><time>2026-01-09T18:24:16.000Z</time></trkpt>
        <trkpt lat="28.7344037" lon="105.2825778"><ele>413.19</ele><time>2026-01-09T18:24:26.000Z</time></trkpt>
        <trkpt lat="28.7344925" lon="105.2826531"><ele>412.3</ele><time>2026-01-09T18:24:38.000Z</time></trkpt>
        <trkpt lat="28.734577" lon="105.2827378"><ele>412.36</ele><time>2026-01-09T18:24:48.000Z</time></trkpt>
        <trkpt lat="28.7346729" lon="105.2827679"><ele>411.92</ele><time>2026-01-09T18:24:56.000Z</time></trkpt>
        <trkpt lat="28.7347764" lon="105.2827699"><ele>409.66</ele><time>2026-01-09T18:25:06.000Z</time></trkpt>
        <trkpt lat="28.7348268" lon="105.2827605"><ele>409.65</ele><time>2026-01-09T18:25:10.000Z</time></trkpt>
        <trkpt lat="28.7349081" lon="105.2827508"><ele>410.68</ele><time>2026-01-09T18:25:18.000Z</time></trkpt>
        <trkpt lat="28.7349971" lon="105.282735"><ele>409.34</ele><time>2026-01-09T18:25:28.000Z</time></trkpt>
        <trkpt lat="28.7350449" lon="105.2826514"><ele>408.82</ele><time>2026-01-09T18:26:00.000Z</time></trkpt>
        <trkpt lat="28.7351129" lon="105.28256"><ele>410.95</ele><time>2026-01-09T18:26:10.000Z</time></trkpt>
        <trkpt lat="28.7351931" lon="105.2825291"><ele>412.89</ele><time>2026-01-09T18:26:21.000Z</time></trkpt>
        <trkpt lat="28.7352828" lon="105.2825354"><ele>414.5</ele><time>2026-01-09T18:26:29.000Z</time></trkpt>
        <trkpt lat="28.7353818" lon="105.2825455"><ele>414.15</ele><time>2026-01-09T18:26:37.000Z</time></trkpt>
        <trkpt lat="28.7354896" lon="105.2825494"><ele>413.46</ele><time>2026-01-09T18:26:49.000Z</time></trkpt>
        <trkpt lat="28.7355901" lon="105.2825591"><ele>412.89</ele><time>2026-01-09T18:27:00.000Z</time></trkpt>
        <trkpt lat="28.7356836" lon="105.2825332"><ele>412.8</ele><time>2026-01-09T18:27:12.000Z</time></trkpt>
        <trkpt lat="28.7357524" lon="105.2824662"><ele>409.43</ele><time>2026-01-09T18:27:26.000Z</time></trkpt>
        <trkpt lat="28.7357655" lon="105.2823562"><ele>409.3</ele><time>2026-01-09T18:27:35.000Z</time></trkpt>
        <trkpt lat="28.7357434" lon="105.2822277"><ele>412.19</ele><time>2026-01-09T18:27:43.000Z</time></trkpt>
        <trkpt lat="28.7357159" lon="105.2821331"><ele>411.48</ele><time>2026-01-09T18:27:51.000Z</time></trkpt>
        <trkpt lat="28.7356853" lon="105.2820291"><ele>410.89</ele><time>2026-01-09T18:28:00.000Z</time></trkpt>
        <trkpt lat="28.7356678" lon="105.2819312"><ele>409.89</ele><time>2026-01-09T18:28:09.000Z</time></trkpt>
        <trkpt lat="28.7356658" lon="105.2818243"><ele>409.76</ele><time>2026-01-09T18:28:16.000Z</time></trkpt>
        <trkpt lat="28.7356977" lon="105.281701"><ele>411.29</ele><time>2026-01-09T18:28:28.000Z</time></trkpt>
        <trkpt lat="28.7357086" lon="105.2815817"><ele>411.32</ele><time>2026-01-09T18:28:36.000Z</time></trkpt>
        <trkpt lat="28.7356955" lon="105.2814756"><ele>410.07</ele><time>2026-01-09T18:28:45.000Z</time></trkpt>
        <trkpt lat="28.7356791" lon="105.2814427"><ele>408.6</ele><time>2026-01-09T18:28:46.000Z</time></trkpt>
        <trkpt lat="28.7356723" lon="105.2813657"><ele>408.87</ele><time>2026-01-09T18:28:54.000Z</time></trkpt>
        <trkpt lat="28.7356792" lon="105.2812718"><ele>407.62</ele><time>2026-01-09T18:29:03.000Z</time></trkpt>
        <trkpt lat="28.7356623" lon="105.2811631"><ele>406.96</ele><time>2026-01-09T18:29:11.000Z</time></trkpt>
        <trkpt lat="28.7356213" lon="105.2810627"><ele>405.69</ele><time>2026-01-09T18:29:19.000Z</time></trkpt>
        <trkpt lat="28.7356041" lon="105.2810392"><ele>404.3</ele><time>2026-01-09T18:29:21.000Z</time></trkpt>
        <trkpt lat="28.7355666" lon="105.2809565"><ele>403.76</ele><time>2026-01-09T18:29:28.000Z</time></trkpt>
        <trkpt lat="28.7355527" lon="105.2808371"><ele>404.24</ele><time>2026-01-09T18:29:36.000Z</time></trkpt>
        <trkpt lat="28.7355707" lon="105.2807654"><ele>404.32</ele><time>2026-01-09T18:29:40.000Z</time></trkpt>
        <trkpt lat="28.7356412" lon="105.2807018"><ele>402.61</ele><time>2026-01-09T18:29:46.000Z</time></trkpt>
        <trkpt lat="28.7357376" lon="105.2806591"><ele>400.26</ele><time>2026-01-09T18:29:54.000Z</time></trkpt>
        <trkpt lat="28.7357799" lon="105.2806587"><ele>398.52</ele><time>2026-01-09T18:29:57.000Z</time></trkpt>
        <trkpt lat="28.7358656" lon="105.2806605"><ele>397.61</ele><time>2026-01-09T18:30:03.000Z</time></trkpt>
        <trkpt lat="28.7359728" lon="105.2806701"><ele>396.14</ele><time>2026-01-09T18:30:11.000Z</time></trkpt>
        <trkpt lat="28.7360809" lon="105.2806491"><ele>395.22</ele><time>2026-01-09T18:30:20.000Z</time></trkpt>
        <trkpt lat="28.736144" lon="105.2805708"><ele>394.28</ele><time>2026-01-09T18:30:26.000Z</time></trkpt>
        <trkpt lat="28.7361302" lon="105.2804656"><ele>394.1</ele><time>2026-01-09T18:30:44.000Z</time></trkpt>
        <trkpt lat="28.7360796" lon="105.2803892"><ele>394.52</ele><time>2026-01-09T18:30:52.000Z</time></trkpt>
        <trkpt lat="28.7360138" lon="105.2802989"><ele>393.83</ele><time>2026-01-09T18:31:00.000Z</time></trkpt>
        <trkpt lat="28.7359513" lon="105.2802137"><ele>393.61</ele><time>2026-01-09T18:31:09.000Z</time></trkpt>
        <trkpt lat="28.735887" lon="105.2801065"><ele>393.98</ele><time>2026-01-09T18:31:16.000Z</time></trkpt>
        <trkpt lat="28.735796" lon="105.2799792"><ele>395.55</ele><time>2026-01-09T18:31:22.000Z</time></trkpt>
        <trkpt lat="28.7357393" lon="105.2799326"><ele>396.58</ele><time>2026-01-09T18:31:30.000Z</time></trkpt>
        <trkpt lat="28.7357389" lon="105.2798503"><ele>396.78</ele><time>2026-01-09T18:31:56.000Z</time></trkpt>
        <trkpt lat="28.7357213" lon="105.2797799"><ele>397.02</ele><time>2026-01-09T18:32:03.000Z</time></trkpt>
        <trkpt lat="28.7356897" lon="105.2796872"><ele>396.54</ele><time>2026-01-09T18:32:10.000Z</time></trkpt>
        <trkpt lat="28.7356339" lon="105.2795992"><ele>395.03</ele><time>2026-01-09T18:32:18.000Z</time></trkpt>
        <trkpt lat="28.7356075" lon="105.2795703"><ele>395.24</ele><time>2026-01-09T18:32:21.000Z</time></trkpt>
        <trkpt lat="28.7355636" lon="105.279499"><ele>395.65</ele><time>2026-01-09T18:32:28.000Z</time></trkpt>
        <trkpt lat="28.7354895" lon="105.2794362"><ele>396.08</ele><time>2026-01-09T18:32:39.000Z</time></trkpt>
        <trkpt lat="28.7354122" lon="105.2793654"><ele>396.62</ele><time>2026-01-09T18:32:47.000Z</time></trkpt>
        <trkpt lat="28.7353901" lon="105.2793194"><ele>397.89</ele><time>2026-01-09T18:32:57.000Z</time></trkpt>
        <trkpt lat="28.7353222" lon="105.2792711"><ele>398.8</ele><time>2026-01-09T18:34:32.000Z</time></trkpt>
        <trkpt lat="28.7352856" lon="105.27917"><ele>399.34</ele><time>2026-01-09T18:34:42.000Z</time></trkpt>
        <trkpt lat="28.7352819" lon="105.2791372"><ele>399.61</ele><time>2026-01-09T18:34:45.000Z</time></trkpt>
        <trkpt lat="28.7352915" lon="105.2790513"><ele>399.68</ele><time>2026-01-09T18:34:51.000Z</time></trkpt>
        <trkpt lat="28.7352947" lon="105.2789485"><ele>396.22</ele><time>2026-01-09T18:35:01.000Z</time></trkpt>
        <trkpt lat="28.7352978" lon="105.2789235"><ele>394.68</ele><time>2026-01-09T18:35:03.000Z</time></trkpt>
        <trkpt lat="28.7352506" lon="105.2788597"><ele>394.81</ele><time>2026-01-09T18:35:11.000Z</time></trkpt>
        <trkpt lat="28.735183" lon="105.2787856"><ele>394.81</ele><time>2026-01-09T18:35:19.000Z</time></trkpt>
        <trkpt lat="28.7351152" lon="105.2786983"><ele>393.74</ele><time>2026-01-09T18:35:26.000Z</time></trkpt>
        <trkpt lat="28.7350492" lon="105.2786142"><ele>393.49</ele><time>2026-01-09T18:35:34.000Z</time></trkpt>
        <trkpt lat="28.7349923" lon="105.2785266"><ele>392.96</ele><time>2026-01-09T18:35:42.000Z</time></trkpt>
        <trkpt lat="28.734922" lon="105.2784609"><ele>392.31</ele><time>2026-01-09T18:35:50.000Z</time></trkpt>
        <trkpt lat="28.7348456" lon="105.2784138"><ele>391.8</ele><time>2026-01-09T18:35:58.000Z</time></trkpt>
        <trkpt lat="28.7347612" lon="105.2783443"><ele>390.44</ele><time>2026-01-09T18:36:06.000Z</time></trkpt>
        <trkpt lat="28.7346803" lon="105.2782753"><ele>391.32</ele><time>2026-01-09T18:36:18.000Z</time></trkpt>
        <trkpt lat="28.7345943" lon="105.278205"><ele>391.45</ele><time>2026-01-09T18:36:28.000Z</time></trkpt>
        <trkpt lat="28.7345492" lon="105.2781599"><ele>391.85</ele><time>2026-01-09T18:36:34.000Z</time></trkpt>
        <trkpt lat="28.7345321" lon="105.2780558"><ele>392.04</ele><time>2026-01-09T18:36:44.000Z</time></trkpt>
        <trkpt lat="28.7344927" lon="105.2779738"><ele>393.3</ele><time>2026-01-09T18:36:52.000Z</time></trkpt>
        <trkpt lat="28.7344581" lon="105.2778798"><ele>393.91</ele><time>2026-01-09T18:37:00.000Z</time></trkpt>
        <trkpt lat="28.7344519" lon="105.2778637"><ele>393.45</ele><time>2026-01-09T18:37:10.000Z</time></trkpt>
        <trkpt lat="28.7345407" lon="105.2779751"><ele>393.42</ele><time>2026-01-09T18:38:30.000Z</time></trkpt>
        <trkpt lat="28.7346111" lon="105.2780112"><ele>395.19</ele><time>2026-01-09T18:38:42.000Z</time></trkpt>
        <trkpt lat="28.7345288" lon="105.2779573"><ele>396.48</ele><time>2026-01-09T18:41:50.000Z</time></trkpt>
        <trkpt lat="28.7345198" lon="105.2779515"><ele>396.84</ele><time>2026-01-09T18:41:54.000Z</time></trkpt>
        <trkpt lat="28.7345123" lon="105.2779747"><ele>396.17</ele><time>2026-01-09T18:42:52.000Z</time></trkpt>
        <trkpt lat="28.734423" lon="105.2780134"><ele>396.37</ele><time>2026-01-09T18:49:10.000Z</time></trkpt>
        <trkpt lat="28.7344817" lon="105.2779326"><ele>397.53</ele><time>2026-01-09T18:51:20.000Z</time></trkpt>
        <trkpt lat="28.734479" lon="105.277926"><ele>397.97</ele><time>2026-01-09T18:51:22.000Z</time></trkpt>
        <trkpt lat="28.7344028" lon="105.2778455"><ele>398.29</ele><time>2026-01-09T18:54:16.000Z</time></trkpt>
        <trkpt lat="28.7343315" lon="105.2777734"><ele>397.34</ele><time>2026-01-09T18:54:24.000Z</time></trkpt>
        <trkpt lat="28.7342462" lon="105.2777181"><ele>397.11</ele><time>2026-01-09T18:54:34.000Z</time></trkpt>
        <trkpt lat="28.7341592" lon="105.2776747"><ele>397.2</ele><time>2026-01-09T18:54:42.000Z</time></trkpt>
        <trkpt lat="28.7341198" lon="105.2776666"><ele>397.44</ele><time>2026-01-09T18:54:46.000Z</time></trkpt>
        <trkpt lat="28.7340473" lon="105.2776551"><ele>397.6</ele><time>2026-01-09T18:55:14.000Z</time></trkpt>
        <trkpt lat="28.7340119" lon="105.2776628"><ele>397.55</ele><time>2026-01-09T18:55:20.000Z</time></trkpt>
        <trkpt lat="28.7339595" lon="105.277605"><ele>397.33</ele><time>2026-01-09T18:55:36.000Z</time></trkpt>
        <trkpt lat="28.7339187" lon="105.2775565"><ele>394.18</ele><time>2026-01-09T18:55:44.000Z</time></trkpt>
        <trkpt lat="28.7338765" lon="105.2774679"><ele>392.51</ele><time>2026-01-09T18:56:04.000Z</time></trkpt>
        <trkpt lat="28.7338647" lon="105.2774319"><ele>391.62</ele><time>2026-01-09T18:56:06.000Z</time></trkpt>
        <trkpt lat="28.73382" lon="105.2773554"><ele>391.07</ele><time>2026-01-09T18:56:34.000Z</time></trkpt>
        <trkpt lat="28.733796" lon="105.2773321"><ele>388.46</ele><time>2026-01-09T18:56:40.000Z</time></trkpt>
        <trkpt lat="28.733733" lon="105.2772679"><ele>387.23</ele><time>2026-01-09T18:58:45.000Z</time></trkpt>
        <trkpt lat="28.7336486" lon="105.2773205"><ele>382.77</ele><time>2026-01-09T18:59:46.000Z</time></trkpt>
        <trkpt lat="28.7335936" lon="105.277422"><ele>379.32</ele><time>2026-01-09T18:59:58.000Z</time></trkpt>
        <trkpt lat="28.7335428" lon="105.2775158"><ele>377.69</ele><time>2026-01-09T19:00:10.000Z</time></trkpt>
        <trkpt lat="28.7335247" lon="105.277551"><ele>377.04</ele><time>2026-01-09T19:00:14.000Z</time></trkpt>
        <trkpt lat="28.7334997" lon="105.2776289"><ele>376.55</ele><time>2026-01-09T19:00:30.000Z</time></trkpt>
        <trkpt lat="28.7334911" lon="105.2776886"><ele>376.73</ele><time>2026-01-09T19:00:40.000Z</time></trkpt>
        <trkpt lat="28.733502" lon="105.2777847"><ele>376.94</ele><time>2026-01-09T19:01:12.000Z</time></trkpt>
        <trkpt lat="28.7334197" lon="105.2777973"><ele>377.25</ele><time>2026-01-09T19:02:26.000Z</time></trkpt>
        <trkpt lat="28.7333361" lon="105.277759"><ele>376.66</ele><time>2026-01-09T19:02:56.000Z</time></trkpt>
        <trkpt lat="28.7332977" lon="105.2776679"><ele>375.97</ele><time>2026-01-09T19:03:42.000Z</time></trkpt>
        <trkpt lat="28.7332995" lon="105.2775597"><ele>375</ele><time>2026-01-09T19:04:12.000Z</time></trkpt>
        <trkpt lat="28.7332654" lon="105.2774475"><ele>373.6</ele><time>2026-01-09T19:06:08.000Z</time></trkpt>
        <trkpt lat="28.7332291" lon="105.2773476"><ele>371.65</ele><time>2026-01-09T19:06:38.000Z</time></trkpt>
        <trkpt lat="28.733163" lon="105.2773899"><ele>370.31</ele><time>2026-01-09T19:07:30.000Z</time></trkpt>
        <trkpt lat="28.7331419" lon="105.2773154"><ele>373.36</ele><time>2026-01-09T19:07:40.000Z</time></trkpt>
        <trkpt lat="28.7331869" lon="105.2772218"><ele>374.86</ele><time>2026-01-09T19:07:50.000Z</time></trkpt>
        <trkpt lat="28.7332499" lon="105.2771286"><ele>375.16</ele><time>2026-01-09T19:08:20.000Z</time></trkpt>
        <trkpt lat="28.733286" lon="105.2770138"><ele>375.29</ele><time>2026-01-09T19:08:56.000Z</time></trkpt>
        <trkpt lat="28.7333432" lon="105.2769098"><ele>375.32</ele><time>2026-01-09T19:09:10.000Z</time></trkpt>
        <trkpt lat="28.7334248" lon="105.2768449"><ele>375.31</ele><time>2026-01-09T19:09:20.000Z</time></trkpt>
        <trkpt lat="28.7333798" lon="105.276791"><ele>375.81</ele><time>2026-01-09T19:09:50.000Z</time></trkpt>
        <trkpt lat="28.7333785" lon="105.2767038"><ele>377.85</ele><time>2026-01-09T19:10:26.000Z</time></trkpt>
        <trkpt lat="28.733409" lon="105.2766038"><ele>380.94</ele><time>2026-01-09T19:10:38.000Z</time></trkpt>
        <trkpt lat="28.7334196" lon="105.2765213"><ele>383.66</ele><time>2026-01-09T19:10:46.000Z</time></trkpt>
        <trkpt lat="28.7333964" lon="105.276425"><ele>387.67</ele><time>2026-01-09T19:11:08.000Z</time></trkpt>
        <trkpt lat="28.7333545" lon="105.2763289"><ele>391.49</ele><time>2026-01-09T19:11:20.000Z</time></trkpt>
        <trkpt lat="28.7333248" lon="105.2762104"><ele>394.88</ele><time>2026-01-09T19:11:32.000Z</time></trkpt>
        <trkpt lat="28.7332801" lon="105.2761102"><ele>397.14</ele><time>2026-01-09T19:11:42.000Z</time></trkpt>
        <trkpt lat="28.73325" lon="105.2760084"><ele>397.54</ele><time>2026-01-09T19:11:52.000Z</time></trkpt>
        <trkpt lat="28.7332155" lon="105.275903"><ele>397.8</ele><time>2026-01-09T19:12:06.000Z</time></trkpt>
        <trkpt lat="28.7331753" lon="105.2758045"><ele>398.1</ele><time>2026-01-09T19:12:16.000Z</time></trkpt>
        <trkpt lat="28.7331256" lon="105.2757055"><ele>397.95</ele><time>2026-01-09T19:12:24.000Z</time></trkpt>
        <trkpt lat="28.7330801" lon="105.2756095"><ele>397.79</ele><time>2026-01-09T19:12:32.000Z</time></trkpt>
        <trkpt lat="28.7330366" lon="105.2755099"><ele>397.49</ele><time>2026-01-09T19:12:40.000Z</time></trkpt>
        <trkpt lat="28.7329818" lon="105.275422"><ele>397.04</ele><time>2026-01-09T19:12:48.000Z</time></trkpt>
        <trkpt lat="28.7329438" lon="105.2753663"><ele>396.45</ele><time>2026-01-09T19:12:56.000Z</time></trkpt>
        <trkpt lat="28.7328944" lon="105.275293"><ele>396.14</ele><time>2026-01-09T19:13:10.000Z</time></trkpt>
        <trkpt lat="28.7328352" lon="105.2752069"><ele>395.48</ele><time>2026-01-09T19:13:20.000Z</time></trkpt>
        <trkpt lat="28.7327766" lon="105.2751234"><ele>394.5</ele><time>2026-01-09T19:13:30.000Z</time></trkpt>
        <trkpt lat="28.732713" lon="105.2750379"><ele>393.06</ele><time>2026-01-09T19:13:45.000Z</time></trkpt>
        <trkpt lat="28.7326895" lon="105.2750172"><ele>391.04</ele><time>2026-01-09T19:13:46.000Z</time></trkpt>
        <trkpt lat="28.7326146" lon="105.2750364"><ele>389.57</ele><time>2026-01-09T19:14:02.000Z</time></trkpt>
        <trkpt lat="28.7325163" lon="105.2750433"><ele>387.08</ele><time>2026-01-09T19:14:20.000Z</time></trkpt>
        <trkpt lat="28.7324135" lon="105.2750183"><ele>384.09</ele><time>2026-01-09T19:14:32.000Z</time></trkpt>
        <trkpt lat="28.7323817" lon="105.2750014"><ele>382.25</ele><time>2026-01-09T19:14:34.000Z</time></trkpt>
        <trkpt lat="28.7324009" lon="105.2748968"><ele>381.09</ele><time>2026-01-09T19:19:20.000Z</time></trkpt>
        <trkpt lat="28.7324412" lon="105.2748004"><ele>378.76</ele><time>2026-01-09T19:20:03.000Z</time></trkpt>
        <trkpt lat="28.7324344" lon="105.2746905"><ele>377.33</ele><time>2026-01-09T19:21:26.000Z</time></trkpt>
        <trkpt lat="28.7323465" lon="105.2746635"><ele>377.94</ele><time>2026-01-09T19:22:06.000Z</time></trkpt>
        <trkpt lat="28.7322708" lon="105.274596"><ele>380.18</ele><time>2026-01-09T19:22:28.000Z</time></trkpt>
        <trkpt lat="28.7321984" lon="105.2745315"><ele>382.77</ele><time>2026-01-09T19:22:44.000Z</time></trkpt>
        <trkpt lat="28.7322239" lon="105.2744379"><ele>384.95</ele><time>2026-01-09T19:23:00.000Z</time></trkpt>
        <trkpt lat="28.7321865" lon="105.2743461"><ele>387.28</ele><time>2026-01-09T19:23:14.000Z</time></trkpt>
        <trkpt lat="28.732123" lon="105.2742617"><ele>389.65</ele><time>2026-01-09T19:23:28.000Z</time></trkpt>
        <trkpt lat="28.7320894" lon="105.2741617"><ele>392.1</ele><time>2026-01-09T19:23:38.000Z</time></trkpt>
        <trkpt lat="28.7320127" lon="105.2741087"><ele>393.55</ele><time>2026-01-09T19:23:56.000Z</time></trkpt>
        <trkpt lat="28.7319215" lon="105.2740957"><ele>394.87</ele><time>2026-01-09T19:24:06.000Z</time></trkpt>
        <trkpt lat="28.7318248" lon="105.274091"><ele>395.65</ele><time>2026-01-09T19:24:28.000Z</time></trkpt>
        <trkpt lat="28.7317198" lon="105.2740962"><ele>396.89</ele><time>2026-01-09T19:24:38.000Z</time></trkpt>
        <trkpt lat="28.7316301" lon="105.2741459"><ele>397.45</ele><time>2026-01-09T19:24:50.000Z</time></trkpt>
        <trkpt lat="28.7315416" lon="105.2742053"><ele>397.97</ele><time>2026-01-09T19:25:00.000Z</time></trkpt>
        <trkpt lat="28.7314534" lon="105.274253"><ele>398.83</ele><time>2026-01-09T19:25:08.000Z</time></trkpt>
        <trkpt lat="28.731371" lon="105.2743049"><ele>399.26</ele><time>2026-01-09T19:25:16.000Z</time></trkpt>
        <trkpt lat="28.731283" lon="105.2743148"><ele>399.42</ele><time>2026-01-09T19:25:24.000Z</time></trkpt>
        <trkpt lat="28.7311894" lon="105.2743202"><ele>399.6</ele><time>2026-01-09T19:25:32.000Z</time></trkpt>
        <trkpt lat="28.7310779" lon="105.2743263"><ele>399.5</ele><time>2026-01-09T19:25:40.000Z</time></trkpt>
        <trkpt lat="28.7309798" lon="105.2743072"><ele>399.2</ele><time>2026-01-09T19:25:50.000Z</time></trkpt>
        <trkpt lat="28.7308612" lon="105.2742986"><ele>398.94</ele><time>2026-01-09T19:26:00.000Z</time></trkpt>
        <trkpt lat="28.7308502" lon="105.2742029"><ele>398.16</ele><time>2026-01-09T19:26:10.000Z</time></trkpt>
        <trkpt lat="28.7308645" lon="105.2741326"><ele>397.18</ele><time>2026-01-09T19:26:16.000Z</time></trkpt>
        <trkpt lat="28.7309168" lon="105.2740309"><ele>396.42</ele><time>2026-01-09T19:27:00.000Z</time></trkpt>
        <trkpt lat="28.7309446" lon="105.2740002"><ele>395.2</ele><time>2026-01-09T19:27:04.000Z</time></trkpt>
        <trkpt lat="28.7310129" lon="105.2739312"><ele>394.55</ele><time>2026-01-09T19:27:16.000Z</time></trkpt>
        <trkpt lat="28.7310616" lon="105.2738331"><ele>393.63</ele><time>2026-01-09T19:27:26.000Z</time></trkpt>
        <trkpt lat="28.7310534" lon="105.2737272"><ele>392.93</ele><time>2026-01-09T19:27:34.000Z</time></trkpt>
        <trkpt lat="28.731041" lon="105.2736091"><ele>392.74</ele><time>2026-01-09T19:27:44.000Z</time></trkpt>
        <trkpt lat="28.7310101" lon="105.273496"><ele>392.7</ele><time>2026-01-09T19:27:52.000Z</time></trkpt>
        <trkpt lat="28.7310071" lon="105.2734149"><ele>392.75</ele><time>2026-01-09T19:28:00.000Z</time></trkpt>
        <trkpt lat="28.7310754" lon="105.2733308"><ele>393.01</ele><time>2026-01-09T19:31:34.000Z</time></trkpt>
        <trkpt lat="28.7311839" lon="105.2732796"><ele>393.8</ele><time>2026-01-09T19:31:44.000Z</time></trkpt>
        <trkpt lat="28.7312721" lon="105.2732183"><ele>394.65</ele><time>2026-01-09T19:31:52.000Z</time></trkpt>
        <trkpt lat="28.7313534" lon="105.2731469"><ele>395.89</ele><time>2026-01-09T19:32:02.000Z</time></trkpt>
        <trkpt lat="28.7314359" lon="105.2730901"><ele>396.52</ele><time>2026-01-09T19:32:14.000Z</time></trkpt>
        <trkpt lat="28.7315304" lon="105.2730604"><ele>396.75</ele><time>2026-01-09T19:32:42.000Z</time></trkpt>
        <trkpt lat="28.7316137" lon="105.2730029"><ele>394.09</ele><time>2026-01-09T19:32:52.000Z</time></trkpt>
        <trkpt lat="28.7316861" lon="105.2729136"><ele>393.56</ele><time>2026-01-09T19:33:40.000Z</time></trkpt>
        <trkpt lat="28.7316714" lon="105.272786"><ele>392.96</ele><time>2026-01-09T19:35:10.000Z</time></trkpt>
        <trkpt lat="28.7315934" lon="105.2727243"><ele>388.67</ele><time>2026-01-09T19:35:28.000Z</time></trkpt>
        <trkpt lat="28.7315009" lon="105.2726804"><ele>386.35</ele><time>2026-01-09T19:35:39.000Z</time></trkpt>
        <trkpt lat="28.7314117" lon="105.2726184"><ele>383.88</ele><time>2026-01-09T19:35:54.000Z</time></trkpt>
        <trkpt lat="28.7313337" lon="105.2725491"><ele>383.53</ele><time>2026-01-09T19:36:12.000Z</time></trkpt>
        <trkpt lat="28.7312806" lon="105.2724587"><ele>384.12</ele><time>2026-01-09T19:36:24.000Z</time></trkpt>
        <trkpt lat="28.7312775" lon="105.2723546"><ele>384.33</ele><time>2026-01-09T19:37:06.000Z</time></trkpt>
        <trkpt lat="28.7312288" lon="105.2722695"><ele>384.98</ele><time>2026-01-09T19:37:36.000Z</time></trkpt>
        <trkpt lat="28.7311675" lon="105.2722376"><ele>386.04</ele><time>2026-01-09T19:37:48.000Z</time></trkpt>
        <trkpt lat="28.7310657" lon="105.2722314"><ele>387.34</ele><time>2026-01-09T19:38:08.000Z</time></trkpt>
        <trkpt lat="28.7309599" lon="105.2721978"><ele>389.91</ele><time>2026-01-09T19:38:24.000Z</time></trkpt>
        <trkpt lat="28.7308617" lon="105.272158"><ele>392.92</ele><time>2026-01-09T19:38:36.000Z</time></trkpt>
        <trkpt lat="28.7307689" lon="105.2721369"><ele>394.37</ele><time>2026-01-09T19:38:48.000Z</time></trkpt>
        <trkpt lat="28.7306688" lon="105.2721297"><ele>395.24</ele><time>2026-01-09T19:39:02.000Z</time></trkpt>
        <trkpt lat="28.7305685" lon="105.2721468"><ele>396.22</ele><time>2026-01-09T19:39:16.000Z</time></trkpt>
        <trkpt lat="28.7305049" lon="105.2721558"><ele>397.52</ele><time>2026-01-09T19:39:26.000Z</time></trkpt>
        <trkpt lat="28.7304232" lon="105.2721577"><ele>399.48</ele><time>2026-01-09T19:39:38.000Z</time></trkpt>
        <trkpt lat="28.7303318" lon="105.2721584"><ele>401.73</ele><time>2026-01-09T19:39:52.000Z</time></trkpt>
        <trkpt lat="28.7302686" lon="105.2721653"><ele>403.53</ele><time>2026-01-09T19:40:04.000Z</time></trkpt>
        <trkpt lat="28.730271" lon="105.2722699"><ele>404.88</ele><time>2026-01-09T19:42:54.000Z</time></trkpt>
        <trkpt lat="28.7302936" lon="105.2723829"><ele>404.54</ele><time>2026-01-09T19:43:04.000Z</time></trkpt>
        <trkpt lat="28.7302799" lon="105.2724671"><ele>404.87</ele><time>2026-01-09T19:43:10.000Z</time></trkpt>
        <trkpt lat="28.7302035" lon="105.2725357"><ele>405.71</ele><time>2026-01-09T19:43:18.000Z</time></trkpt>
        <trkpt lat="28.7301402" lon="105.2725549"><ele>405.31</ele><time>2026-01-09T19:43:24.000Z</time></trkpt>
        <trkpt lat="28.7300548" lon="105.2725807"><ele>404.55</ele><time>2026-01-09T19:43:50.000Z</time></trkpt>
        <trkpt lat="28.7299525" lon="105.2725745"><ele>404.24</ele><time>2026-01-09T19:43:58.000Z</time></trkpt>
        <trkpt lat="28.729905" lon="105.2725595"><ele>403.53</ele><time>2026-01-09T19:44:03.000Z</time></trkpt>
        <trkpt lat="28.7298317" lon="105.2725188"><ele>404.09</ele><time>2026-01-09T19:44:40.000Z</time></trkpt>
        <trkpt lat="28.7297389" lon="105.2724895"><ele>403.64</ele><time>2026-01-09T19:44:50.000Z</time></trkpt>
        <trkpt lat="28.72964" lon="105.2724842"><ele>403.13</ele><time>2026-01-09T19:44:58.000Z</time></trkpt>
        <trkpt lat="28.7295298" lon="105.2724933"><ele>402.84</ele><time>2026-01-09T19:45:08.000Z</time></trkpt>
        <trkpt lat="28.7294404" lon="105.2724386"><ele>403.44</ele><time>2026-01-09T19:45:20.000Z</time></trkpt>
        <trkpt lat="28.7294285" lon="105.2723381"><ele>404.22</ele><time>2026-01-09T19:45:28.000Z</time></trkpt>
        <trkpt lat="28.7294177" lon="105.2723823"><ele>404.92</ele><time>2026-01-09T19:45:44.000Z</time></trkpt>
        <trkpt lat="28.7293626" lon="105.2724587"><ele>405.73</ele><time>2026-01-09T19:45:58.000Z</time></trkpt>
        <trkpt lat="28.7292747" lon="105.2725218"><ele>406.27</ele><time>2026-01-09T19:46:12.000Z</time></trkpt>
        <trkpt lat="28.7291764" lon="105.2725809"><ele>406.42</ele><time>2026-01-09T19:46:20.000Z</time></trkpt>
        <trkpt lat="28.729086" lon="105.2726495"><ele>406.27</ele><time>2026-01-09T19:46:30.000Z</time></trkpt>
        <trkpt lat="28.7289893" lon="105.2726763"><ele>405.9</ele><time>2026-01-09T19:46:42.000Z</time></trkpt>
        <trkpt lat="28.7288924" lon="105.272709"><ele>405.55</ele><time>2026-01-09T19:46:58.000Z</time></trkpt>
        <trkpt lat="28.7288604" lon="105.2727071"><ele>404.99</ele><time>2026-01-09T19:47:00.000Z</time></trkpt>
        <trkpt lat="28.7288976" lon="105.2726308"><ele>404.6</ele><time>2026-01-09T19:47:24.000Z</time></trkpt>
        <trkpt lat="28.7289222" lon="105.2725984"><ele>404.28</ele><time>2026-01-09T19:47:26.000Z</time></trkpt>
        <trkpt lat="28.7290075" lon="105.2725734"><ele>403.97</ele><time>2026-01-09T19:47:58.000Z</time></trkpt>
        <trkpt lat="28.7291158" lon="105.2725124"><ele>403.33</ele><time>2026-01-09T19:48:10.000Z</time></trkpt>
        <trkpt lat="28.7292139" lon="105.2724554"><ele>402.21</ele><time>2026-01-09T19:48:18.000Z</time></trkpt>
        <trkpt lat="28.7292694" lon="105.2723549"><ele>400.46</ele><time>2026-01-09T19:48:28.000Z</time></trkpt>
        <trkpt lat="28.729295" lon="105.2722434"><ele>398.61</ele><time>2026-01-09T19:48:38.000Z</time></trkpt>
        <trkpt lat="28.7292269" lon="105.2721592"><ele>400.46</ele><time>2026-01-09T19:49:30.000Z</time></trkpt>
        <trkpt lat="28.7292345" lon="105.2721272"><ele>398.39</ele><time>2026-01-09T19:49:46.000Z</time></trkpt>
        <trkpt lat="28.7291678" lon="105.2720824"><ele>398.22</ele><time>2026-01-09T19:51:33.000Z</time></trkpt>
        <trkpt lat="28.7290727" lon="105.2720705"><ele>396.86</ele><time>2026-01-09T19:51:40.000Z</time></trkpt>
        <trkpt lat="28.7289845" lon="105.2720093"><ele>395.13</ele><time>2026-01-09T19:51:58.000Z</time></trkpt>
        <trkpt lat="28.7288983" lon="105.2719694"><ele>391.42</ele><time>2026-01-09T19:52:09.000Z</time></trkpt>
        <trkpt lat="28.7288107" lon="105.2719352"><ele>388.81</ele><time>2026-01-09T19:53:26.000Z</time></trkpt>
        <trkpt lat="28.7287042" lon="105.2718643"><ele>386.48</ele><time>2026-01-09T19:53:32.000Z</time></trkpt>
        <trkpt lat="28.7286254" lon="105.2718155"><ele>385.82</ele><time>2026-01-09T19:53:40.000Z</time></trkpt>
        <trkpt lat="28.7285255" lon="105.271797"><ele>384.89</ele><time>2026-01-09T19:54:00.000Z</time></trkpt>
        <trkpt lat="28.7284306" lon="105.271784"><ele>384.81</ele><time>2026-01-09T19:54:08.000Z</time></trkpt>
        <trkpt lat="28.7283269" lon="105.2717573"><ele>384.64</ele><time>2026-01-09T19:54:20.000Z</time></trkpt>
        <trkpt lat="28.7283049" lon="105.2718001"><ele>383.3</ele><time>2026-01-09T19:54:34.000Z</time></trkpt>
        <trkpt lat="28.7282277" lon="105.2717995"><ele>382.16</ele><time>2026-01-09T19:54:51.000Z</time></trkpt>
        <trkpt lat="28.7281314" lon="105.2717688"><ele>380.27</ele><time>2026-01-09T19:55:00.000Z</time></trkpt>
        <trkpt lat="28.7280366" lon="105.2717475"><ele>378</ele><time>2026-01-09T19:55:09.000Z</time></trkpt>
        <trkpt lat="28.7279905" lon="105.2717394"><ele>376.78</ele><time>2026-01-09T19:55:12.000Z</time></trkpt>
        <trkpt lat="28.7279424" lon="105.2716585"><ele>375.78</ele><time>2026-01-09T19:56:14.000Z</time></trkpt>
        <trkpt lat="28.7279155" lon="105.2717612"><ele>372.99</ele><time>2026-01-09T19:57:18.000Z</time></trkpt>
        <trkpt lat="28.7278595" lon="105.2718447"><ele>371.37</ele><time>2026-01-09T19:57:44.000Z</time></trkpt>
        <trkpt lat="28.7277695" lon="105.2718602"><ele>370.26</ele><time>2026-01-09T19:58:00.000Z</time></trkpt>
        <trkpt lat="28.7276722" lon="105.2718987"><ele>366.26</ele><time>2026-01-09T19:58:20.000Z</time></trkpt>
        <trkpt lat="28.7276139" lon="105.2718336"><ele>361.82</ele><time>2026-01-09T19:58:32.000Z</time></trkpt>
        <trkpt lat="28.7275971" lon="105.2717284"><ele>357.74</ele><time>2026-01-09T19:59:18.000Z</time></trkpt>
        <trkpt lat="28.7275812" lon="105.2716091"><ele>355.09</ele><time>2026-01-09T19:59:36.000Z</time></trkpt>
        <trkpt lat="28.7276335" lon="105.271678"><ele>352.48</ele><time>2026-01-09T20:02:16.000Z</time></trkpt>
        <trkpt lat="28.72765" lon="105.2717792"><ele>350.81</ele><time>2026-01-09T20:02:58.000Z</time></trkpt>
        <trkpt lat="28.7276901" lon="105.2718815"><ele>350.61</ele><time>2026-01-09T20:03:26.000Z</time></trkpt>
        <trkpt lat="28.7277585" lon="105.2719492"><ele>351.09</ele><time>2026-01-09T20:03:44.000Z</time></trkpt>
        <trkpt lat="28.727835" lon="105.2720096"><ele>351.23</ele><time>2026-01-09T20:04:27.000Z</time></trkpt>
        <trkpt lat="28.7278293" lon="105.2721075"><ele>351.25</ele><time>2026-01-09T20:04:50.000Z</time></trkpt>
        <trkpt lat="28.7277557" lon="105.2721842"><ele>351.02</ele><time>2026-01-09T20:05:10.000Z</time></trkpt>
        <trkpt lat="28.7276614" lon="105.2722396"><ele>350.7</ele><time>2026-01-09T20:05:54.000Z</time></trkpt>
        <trkpt lat="28.7275534" lon="105.2722517"><ele>352.3</ele><time>2026-01-09T20:06:02.000Z</time></trkpt>
        <trkpt lat="28.7274636" lon="105.2722615"><ele>353.32</ele><time>2026-01-09T20:06:14.000Z</time></trkpt>
        <trkpt lat="28.7273707" lon="105.2722656"><ele>354.27</ele><time>2026-01-09T20:06:46.000Z</time></trkpt>
        <trkpt lat="28.7272755" lon="105.2722711"><ele>355.58</ele><time>2026-01-09T20:06:54.000Z</time></trkpt>
        <trkpt lat="28.7271806" lon="105.272269"><ele>356.63</ele><time>2026-01-09T20:07:02.000Z</time></trkpt>
        <trkpt lat="28.7270887" lon="105.2723028"><ele>357.75</ele><time>2026-01-09T20:07:14.000Z</time></trkpt>
        <trkpt lat="28.7269983" lon="105.2723329"><ele>358.97</ele><time>2026-01-09T20:07:28.000Z</time></trkpt>
        <trkpt lat="28.7270509" lon="105.2723504"><ele>359.77</ele><time>2026-01-09T20:07:46.000Z</time></trkpt>
        <trkpt lat="28.7271479" lon="105.2723282"><ele>360.34</ele><time>2026-01-09T20:07:56.000Z</time></trkpt>
        <trkpt lat="28.7272555" lon="105.2723031"><ele>360.66</ele><time>2026-01-09T20:08:04.000Z</time></trkpt>
        <trkpt lat="28.7273643" lon="105.2723076"><ele>361.05</ele><time>2026-01-09T20:08:14.000Z</time></trkpt>
        <trkpt lat="28.7274005" lon="105.2723118"><ele>361.28</ele><time>2026-01-09T20:08:16.000Z</time></trkpt>
        <trkpt lat="28.7274658" lon="105.2723449"><ele>361.44</ele><time>2026-01-09T20:08:40.000Z</time></trkpt>
        <trkpt lat="28.7275169" lon="105.2724258"><ele>361.52</ele><time>2026-01-09T20:08:48.000Z</time></trkpt>
        <trkpt lat="28.7275434" lon="105.2725425"><ele>361.27</ele><time>2026-01-09T20:08:58.000Z</time></trkpt>
        <trkpt lat="28.7275926" lon="105.272654"><ele>361.24</ele><time>2026-01-09T20:09:08.000Z</time></trkpt>
        <trkpt lat="28.7276684" lon="105.2727483"><ele>361.28</ele><time>2026-01-09T20:09:18.000Z</time></trkpt>
        <trkpt lat="28.7277179" lon="105.2728549"><ele>361.07</ele><time>2026-01-09T20:09:28.000Z</time></trkpt>
        <trkpt lat="28.7277636" lon="105.272959"><ele>361.54</ele><time>2026-01-09T20:09:38.000Z</time></trkpt>
        <trkpt lat="28.7277696" lon="105.2729977"><ele>361.38</ele><time>2026-01-09T20:09:42.000Z</time></trkpt>
        <trkpt lat="28.7277769" lon="105.2730773"><ele>357.63</ele><time>2026-01-09T20:09:52.000Z</time></trkpt>
        <trkpt lat="28.7277492" lon="105.2731851"><ele>357.37</ele><time>2026-01-09T20:10:02.000Z</time></trkpt>
        <trkpt lat="28.7276937" lon="105.2732782"><ele>359.14</ele><time>2026-01-09T20:10:12.000Z</time></trkpt>
        <trkpt lat="28.7276259" lon="105.2733672"><ele>361.56</ele><time>2026-01-09T20:10:32.000Z</time></trkpt>
        <trkpt lat="28.7275461" lon="105.2734585"><ele>364.31</ele><time>2026-01-09T20:10:42.000Z</time></trkpt>
        <trkpt lat="28.7274792" lon="105.2735501"><ele>366.73</ele><time>2026-01-09T20:10:54.000Z</time></trkpt>
        <trkpt lat="28.7275047" lon="105.2736427"><ele>368.94</ele><time>2026-01-09T20:11:04.000Z</time></trkpt>
        <trkpt lat="28.7275477" lon="105.2737487"><ele>370.91</ele><time>2026-01-09T20:11:14.000Z</time></trkpt>
        <trkpt lat="28.7275876" lon="105.2738667"><ele>372.68</ele><time>2026-01-09T20:11:24.000Z</time></trkpt>
        <trkpt lat="28.7276062" lon="105.2739756"><ele>373.8</ele><time>2026-01-09T20:11:34.000Z</time></trkpt>
        <trkpt lat="28.7276229" lon="105.2740925"><ele>375.57</ele><time>2026-01-09T20:11:44.000Z</time></trkpt>
        <trkpt lat="28.7276569" lon="105.2741986"><ele>377.21</ele><time>2026-01-09T20:11:57.000Z</time></trkpt>
        <trkpt lat="28.7276663" lon="105.27431"><ele>378.84</ele><time>2026-01-09T20:12:10.000Z</time></trkpt>
        <trkpt lat="28.7276723" lon="105.274424"><ele>382.17</ele><time>2026-01-09T20:12:18.000Z</time></trkpt>
        <trkpt lat="28.7276868" lon="105.2745359"><ele>383.83</ele><time>2026-01-09T20:12:28.000Z</time></trkpt>
        <trkpt lat="28.7277216" lon="105.2746468"><ele>384.92</ele><time>2026-01-09T20:12:38.000Z</time></trkpt>
        <trkpt lat="28.7277288" lon="105.2747615"><ele>385.66</ele><time>2026-01-09T20:13:06.000Z</time></trkpt>
        <trkpt lat="28.7277191" lon="105.2748842"><ele>386.51</ele><time>2026-01-09T20:13:20.000Z</time></trkpt>
        <trkpt lat="28.7277698" lon="105.2749673"><ele>387.02</ele><time>2026-01-09T20:13:32.000Z</time></trkpt>
        <trkpt lat="28.7278311" lon="105.2750596"><ele>387.63</ele><time>2026-01-09T20:16:16.000Z</time></trkpt>
        <trkpt lat="28.7278417" lon="105.2751638"><ele>389.46</ele><time>2026-01-09T20:16:40.000Z</time></trkpt>
        <trkpt lat="28.7278559" lon="105.2752751"><ele>390.9</ele><time>2026-01-09T20:17:16.000Z</time></trkpt>
        <trkpt lat="28.7278399" lon="105.275381"><ele>392.13</ele><time>2026-01-09T20:17:24.000Z</time></trkpt>
        <trkpt lat="28.7277676" lon="105.2754475"><ele>393.21</ele><time>2026-01-09T20:17:36.000Z</time></trkpt>
        <trkpt lat="28.7276733" lon="105.2754851"><ele>394.09</ele><time>2026-01-09T20:17:56.000Z</time></trkpt>
        <trkpt lat="28.7275806" lon="105.2755227"><ele>394.82</ele><time>2026-01-09T20:18:56.000Z</time></trkpt>
        <trkpt lat="28.7275092" lon="105.2756015"><ele>397.34</ele><time>2026-01-09T20:20:10.000Z</time></trkpt>
        <trkpt lat="28.7274221" lon="105.275659"><ele>397.23</ele><time>2026-01-09T20:20:21.000Z</time></trkpt>
        <trkpt lat="28.727339" lon="105.2757124"><ele>397.06</ele><time>2026-01-09T20:20:48.000Z</time></trkpt>
        <trkpt lat="28.7272576" lon="105.2757686"><ele>397.27</ele><time>2026-01-09T20:20:58.000Z</time></trkpt>
        <trkpt lat="28.7271767" lon="105.275829"><ele>397.23</ele><time>2026-01-09T20:21:06.000Z</time></trkpt>
        <trkpt lat="28.7271089" lon="105.2759073"><ele>397.1</ele><time>2026-01-09T20:21:15.000Z</time></trkpt>
        <trkpt lat="28.7270322" lon="105.2759935"><ele>397.07</ele><time>2026-01-09T20:21:24.000Z</time></trkpt>
        <trkpt lat="28.7269479" lon="105.2760757"><ele>398.69</ele><time>2026-01-09T20:21:36.000Z</time></trkpt>
        <trkpt lat="28.7269932" lon="105.2760545"><ele>400.47</ele><time>2026-01-09T20:22:12.000Z</time></trkpt>
        <trkpt lat="28.7269562" lon="105.2760793"><ele>401.71</ele><time>2026-01-09T20:22:40.000Z</time></trkpt>
        <trkpt lat="28.7268922" lon="105.2761386"><ele>402.06</ele><time>2026-01-09T20:22:50.000Z</time></trkpt>
        <trkpt lat="28.726799" lon="105.2762061"><ele>402.26</ele><time>2026-01-09T20:23:00.000Z</time></trkpt>
        <trkpt lat="28.7267129" lon="105.2762677"><ele>402.37</ele><time>2026-01-09T20:23:08.000Z</time></trkpt>
        <trkpt lat="28.726622" lon="105.2763412"><ele>402.56</ele><time>2026-01-09T20:23:18.000Z</time></trkpt>
        <trkpt lat="28.7265451" lon="105.2764113"><ele>401.96</ele><time>2026-01-09T20:23:26.000Z</time></trkpt>
        <trkpt lat="28.7264734" lon="105.2764983"><ele>401.52</ele><time>2026-01-09T20:23:36.000Z</time></trkpt>
        <trkpt lat="28.7264196" lon="105.2765961"><ele>400.71</ele><time>2026-01-09T20:23:46.000Z</time></trkpt>
        <trkpt lat="28.726382" lon="105.2767068"><ele>399.31</ele><time>2026-01-09T20:23:56.000Z</time></trkpt>
        <trkpt lat="28.7263366" lon="105.2768255"><ele>397.18</ele><time>2026-01-09T20:24:06.000Z</time></trkpt>
        <trkpt lat="28.726282" lon="105.2769274"><ele>394.48</ele><time>2026-01-09T20:24:14.000Z</time></trkpt>
        <trkpt lat="28.7262518" lon="105.2770298"><ele>391.73</ele><time>2026-01-09T20:24:22.000Z</time></trkpt>
        <trkpt lat="28.7262439" lon="105.2771378"><ele>389.46</ele><time>2026-01-09T20:24:32.000Z</time></trkpt>
        <trkpt lat="28.7262245" lon="105.2772411"><ele>387.66</ele><time>2026-01-09T20:24:42.000Z</time></trkpt>
        <trkpt lat="28.7262203" lon="105.2773518"><ele>386.78</ele><time>2026-01-09T20:24:52.000Z</time></trkpt>
        <trkpt lat="28.7262849" lon="105.2774336"><ele>386.42</ele><time>2026-01-09T20:25:02.000Z</time></trkpt>
        <trkpt lat="28.7263804" lon="105.2774984"><ele>386.51</ele><time>2026-01-09T20:25:14.000Z</time></trkpt>
        <trkpt lat="28.726483" lon="105.2775449"><ele>387.31</ele><time>2026-01-09T20:25:24.000Z</time></trkpt>
        <trkpt lat="28.7265624" lon="105.2775888"><ele>388.03</ele><time>2026-01-09T20:25:32.000Z</time></trkpt>
        <trkpt lat="28.7264837" lon="105.2776519"><ele>388.49</ele><time>2026-01-09T20:26:34.000Z</time></trkpt>
        <trkpt lat="28.7263974" lon="105.2776111"><ele>389.67</ele><time>2026-01-09T20:26:42.000Z</time></trkpt>
        <trkpt lat="28.7262973" lon="105.2775687"><ele>390.79</ele><time>2026-01-09T20:26:54.000Z</time></trkpt>
        <trkpt lat="28.726199" lon="105.2775532"><ele>391.95</ele><time>2026-01-09T20:27:04.000Z</time></trkpt>
        <trkpt lat="28.7260911" lon="105.2775584"><ele>393.59</ele><time>2026-01-09T20:27:14.000Z</time></trkpt>
        <trkpt lat="28.72598" lon="105.2775694"><ele>394.89</ele><time>2026-01-09T20:27:24.000Z</time></trkpt>
        <trkpt lat="28.7258831" lon="105.2775819"><ele>395.94</ele><time>2026-01-09T20:27:32.000Z</time></trkpt>
        <trkpt lat="28.7257786" lon="105.2775892"><ele>396.61</ele><time>2026-01-09T20:27:42.000Z</time></trkpt>
        <trkpt lat="28.725666" lon="105.2775941"><ele>396.9</ele><time>2026-01-09T20:27:52.000Z</time></trkpt>
        <trkpt lat="28.7255662" lon="105.2776078"><ele>397.22</ele><time>2026-01-09T20:28:00.000Z</time></trkpt>
        <trkpt lat="28.725476" lon="105.2776863"><ele>397.61</ele><time>2026-01-09T20:28:06.000Z</time></trkpt>
        <trkpt lat="28.7254246" lon="105.2778158"><ele>397.9</ele><time>2026-01-09T20:28:12.000Z</time></trkpt>
        <trkpt lat="28.7254232" lon="105.2779527"><ele>397.82</ele><time>2026-01-09T20:28:18.000Z</time></trkpt>
        <trkpt lat="28.725439" lon="105.2780794"><ele>397.53</ele><time>2026-01-09T20:28:22.000Z</time></trkpt>
        <trkpt lat="28.7254285" lon="105.2781969"><ele>397.21</ele><time>2026-01-09T20:28:26.000Z</time></trkpt>
        <trkpt lat="28.7253495" lon="105.2782802"><ele>396.99</ele><time>2026-01-09T20:28:32.000Z</time></trkpt>
        <trkpt lat="28.7252242" lon="105.2782615"><ele>396.72</ele><time>2026-01-09T20:28:38.000Z</time></trkpt>
        <trkpt lat="28.725101" lon="105.2782093"><ele>396.51</ele><time>2026-01-09T20:28:45.000Z</time></trkpt>
        <trkpt lat="28.7249811" lon="105.2781822"><ele>396.55</ele><time>2026-01-09T20:28:50.000Z</time></trkpt>
        <trkpt lat="28.7248658" lon="105.2781679"><ele>396.62</ele><time>2026-01-09T20:28:56.000Z</time></trkpt>
        <trkpt lat="28.7247578" lon="105.2781284"><ele>396.73</ele><time>2026-01-09T20:29:02.000Z</time></trkpt>
        <trkpt lat="28.7246479" lon="105.2780884"><ele>396.88</ele><time>2026-01-09T20:29:08.000Z</time></trkpt>
        <trkpt lat="28.7245599" lon="105.2780706"><ele>397.54</ele><time>2026-01-09T20:29:14.000Z</time></trkpt>
        <trkpt lat="28.7244683" lon="105.2780598"><ele>398.51</ele><time>2026-01-09T20:29:24.000Z</time></trkpt>
        <trkpt lat="28.7243584" lon="105.2780622"><ele>399.99</ele><time>2026-01-09T20:29:34.000Z</time></trkpt>
        <trkpt lat="28.7242452" lon="105.2780688"><ele>401.56</ele><time>2026-01-09T20:29:44.000Z</time></trkpt>
        <trkpt lat="28.7241453" lon="105.2780704"><ele>402.88</ele><time>2026-01-09T20:29:52.000Z</time></trkpt>
        <trkpt lat="28.7240387" lon="105.2780478"><ele>403.77</ele><time>2026-01-09T20:30:00.000Z</time></trkpt>
        <trkpt lat="28.7239476" lon="105.2779767"><ele>404.35</ele><time>2026-01-09T20:30:10.000Z</time></trkpt>
        <trkpt lat="28.723859" lon="105.2779044"><ele>405.11</ele><time>2026-01-09T20:30:20.000Z</time></trkpt>
        <trkpt lat="28.723759" lon="105.2778626"><ele>406.49</ele><time>2026-01-09T20:30:28.000Z</time></trkpt>
        <trkpt lat="28.7236587" lon="105.2778342"><ele>407.69</ele><time>2026-01-09T20:30:36.000Z</time></trkpt>
        <trkpt lat="28.7235453" lon="105.2778209"><ele>409.09</ele><time>2026-01-09T20:30:46.000Z</time></trkpt>
        <trkpt lat="28.7234321" lon="105.2778186"><ele>410.73</ele><time>2026-01-09T20:30:56.000Z</time></trkpt>
        <trkpt lat="28.7233205" lon="105.2778203"><ele>412.2</ele><time>2026-01-09T20:31:04.000Z</time></trkpt>
        <trkpt lat="28.7232104" lon="105.2778229"><ele>413.34</ele><time>2026-01-09T20:31:14.000Z</time></trkpt>
        <trkpt lat="28.7230976" lon="105.2778155"><ele>414.83</ele><time>2026-01-09T20:31:24.000Z</time></trkpt>
        <trkpt lat="28.7230407" lon="105.2778149"><ele>416.43</ele><time>2026-01-09T20:31:27.000Z</time></trkpt>
        <trkpt lat="28.7229567" lon="105.2778365"><ele>418.97</ele><time>2026-01-09T20:31:36.000Z</time></trkpt>
        <trkpt lat="28.7228701" lon="105.2778673"><ele>419.04</ele><time>2026-01-09T20:31:42.000Z</time></trkpt>
        <trkpt lat="28.7227767" lon="105.2779223"><ele>419.21</ele><time>2026-01-09T20:31:54.000Z</time></trkpt>
        <trkpt lat="28.7226996" lon="105.2779903"><ele>419.05</ele><time>2026-01-09T20:32:02.000Z</time></trkpt>
        <trkpt lat="28.722629" lon="105.2780732"><ele>418.67</ele><time>2026-01-09T20:32:14.000Z</time></trkpt>
        <trkpt lat="28.7226106" lon="105.2781517"><ele>417.69</ele><time>2026-01-09T20:32:22.000Z</time></trkpt>
        <trkpt lat="28.7226923" lon="105.278268"><ele>416.61</ele><time>2026-01-09T20:34:42.000Z</time></trkpt>
        <trkpt lat="28.7227506" lon="105.27836"><ele>414.93</ele><time>2026-01-09T20:34:52.000Z</time></trkpt>
        <trkpt lat="28.7227833" lon="105.2784627"><ele>413.67</ele><time>2026-01-09T20:35:04.000Z</time></trkpt>
        <trkpt lat="28.7228146" lon="105.2785771"><ele>412.92</ele><time>2026-01-09T20:35:21.000Z</time></trkpt>
        <trkpt lat="28.7228435" lon="105.2786866"><ele>412.61</ele><time>2026-01-09T20:35:32.000Z</time></trkpt>
        <trkpt lat="28.7228617" lon="105.278768"><ele>412</ele><time>2026-01-09T20:35:46.000Z</time></trkpt>
        <trkpt lat="28.7228699" lon="105.2788622"><ele>411.92</ele><time>2026-01-09T20:36:02.000Z</time></trkpt>
        <trkpt lat="28.7228708" lon="105.2789793"><ele>411.52</ele><time>2026-01-09T20:36:12.000Z</time></trkpt>
        <trkpt lat="28.7228955" lon="105.2790942"><ele>410.71</ele><time>2026-01-09T20:36:26.000Z</time></trkpt>
        <trkpt lat="28.7229158" lon="105.2792049"><ele>410.93</ele><time>2026-01-09T20:36:36.000Z</time></trkpt>
        <trkpt lat="28.7229217" lon="105.2793135"><ele>410.28</ele><time>2026-01-09T20:36:46.000Z</time></trkpt>
        <trkpt lat="28.7229442" lon="105.2794309"><ele>409.52</ele><time>2026-01-09T20:36:58.000Z</time></trkpt>
        <trkpt lat="28.7229737" lon="105.2795415"><ele>408.51</ele><time>2026-01-09T20:37:09.000Z</time></trkpt>
        <trkpt lat="28.7230236" lon="105.2796482"><ele>407.88</ele><time>2026-01-09T20:37:18.000Z</time></trkpt>
        <trkpt lat="28.7230927" lon="105.2797309"><ele>407.2</ele><time>2026-01-09T20:37:30.000Z</time></trkpt>
        <trkpt lat="28.723184" lon="105.2797891"><ele>406.76</ele><time>2026-01-09T20:37:40.000Z</time></trkpt>
        <trkpt lat="28.7232749" lon="105.2798363"><ele>406.68</ele><time>2026-01-09T20:37:50.000Z</time></trkpt>
        <trkpt lat="28.7233389" lon="105.2799073"><ele>407.58</ele><time>2026-01-09T20:38:00.000Z</time></trkpt>
        <trkpt lat="28.7233955" lon="105.2799865"><ele>407.76</ele><time>2026-01-09T20:38:08.000Z</time></trkpt>
        <trkpt lat="28.7234166" lon="105.2800844"><ele>407.5</ele><time>2026-01-09T20:38:16.000Z</time></trkpt>
        <trkpt lat="28.7234418" lon="105.2801991"><ele>407.46</ele><time>2026-01-09T20:38:24.000Z</time></trkpt>
        <trkpt lat="28.7234915" lon="105.2803064"><ele>406.96</ele><time>2026-01-09T20:38:36.000Z</time></trkpt>
        <trkpt lat="28.7235732" lon="105.2803758"><ele>406.36</ele><time>2026-01-09T20:38:48.000Z</time></trkpt>
        <trkpt lat="28.7236597" lon="105.2804463"><ele>405.96</ele><time>2026-01-09T20:38:58.000Z</time></trkpt>
        <trkpt lat="28.7237484" lon="105.2805141"><ele>405.69</ele><time>2026-01-09T20:39:08.000Z</time></trkpt>
        <trkpt lat="28.7238372" lon="105.280563"><ele>405.27</ele><time>2026-01-09T20:39:20.000Z</time></trkpt>
        <trkpt lat="28.723919" lon="105.2806227"><ele>404.8</ele><time>2026-01-09T20:39:48.000Z</time></trkpt>
        <trkpt lat="28.7239999" lon="105.2806905"><ele>403.93</ele><time>2026-01-09T20:39:58.000Z</time></trkpt>
        <trkpt lat="28.7240908" lon="105.2807595"><ele>404.14</ele><time>2026-01-09T20:40:09.000Z</time></trkpt>
        <trkpt lat="28.7241857" lon="105.280805"><ele>404.4</ele><time>2026-01-09T20:40:16.000Z</time></trkpt>
        <trkpt lat="28.7242694" lon="105.2808318"><ele>406.76</ele><time>2026-01-09T20:40:24.000Z</time></trkpt>
        <trkpt lat="28.7243588" lon="105.2808459"><ele>408.83</ele><time>2026-01-09T20:40:34.000Z</time></trkpt>
        <trkpt lat="28.7244532" lon="105.2808647"><ele>410.69</ele><time>2026-01-09T20:40:46.000Z</time></trkpt>
        <trkpt lat="28.7245574" lon="105.2808815"><ele>410.53</ele><time>2026-01-09T20:40:56.000Z</time></trkpt>
        <trkpt lat="28.7246529" lon="105.2808748"><ele>408.25</ele><time>2026-01-09T20:41:04.000Z</time></trkpt>
        <trkpt lat="28.724759" lon="105.2808767"><ele>409.8</ele><time>2026-01-09T20:41:12.000Z</time></trkpt>
        <trkpt lat="28.7248572" lon="105.2808807"><ele>412.32</ele><time>2026-01-09T20:41:21.000Z</time></trkpt>
        <trkpt lat="28.7249626" lon="105.2808814"><ele>413.41</ele><time>2026-01-09T20:41:30.000Z</time></trkpt>
        <trkpt lat="28.7250619" lon="105.280884"><ele>413.72</ele><time>2026-01-09T20:41:40.000Z</time></trkpt>
        <trkpt lat="28.7251593" lon="105.2808956"><ele>414.46</ele><time>2026-01-09T20:41:48.000Z</time></trkpt>
        <trkpt lat="28.7252572" lon="105.2809277"><ele>412.58</ele><time>2026-01-09T20:41:57.000Z</time></trkpt>
        <trkpt lat="28.7253517" lon="105.2809549"><ele>410.34</ele><time>2026-01-09T20:42:06.000Z</time></trkpt>
        <trkpt lat="28.7254452" lon="105.2809855"><ele>408.57</ele><time>2026-01-09T20:42:15.000Z</time></trkpt>
        <trkpt lat="28.7255338" lon="105.2810152"><ele>407.48</ele><time>2026-01-09T20:42:22.000Z</time></trkpt>
        <trkpt lat="28.7256212" lon="105.2810471"><ele>408.26</ele><time>2026-01-09T20:42:30.000Z</time></trkpt>
        <trkpt lat="28.7257189" lon="105.2810852"><ele>409.69</ele><time>2026-01-09T20:42:40.000Z</time></trkpt>
        <trkpt lat="28.7258138" lon="105.2811343"><ele>410.06</ele><time>2026-01-09T20:42:50.000Z</time></trkpt>
        <trkpt lat="28.7259159" lon="105.2811798"><ele>409.6</ele><time>2026-01-09T20:43:00.000Z</time></trkpt>
        <trkpt lat="28.7260085" lon="105.2812175"><ele>409.1</ele><time>2026-01-09T20:43:09.000Z</time></trkpt>
        <trkpt lat="28.7260961" lon="105.2812561"><ele>408.97</ele><time>2026-01-09T20:43:16.000Z</time></trkpt>
        <trkpt lat="28.7261957" lon="105.2812915"><ele>410.03</ele><time>2026-01-09T20:43:24.000Z</time></trkpt>
        <trkpt lat="28.7262968" lon="105.2813311"><ele>410.33</ele><time>2026-01-09T20:43:34.000Z</time></trkpt>
        <trkpt lat="28.7263988" lon="105.2813759"><ele>410.63</ele><time>2026-01-09T20:43:45.000Z</time></trkpt>
        <trkpt lat="28.7265009" lon="105.2814163"><ele>410.29</ele><time>2026-01-09T20:43:54.000Z</time></trkpt>
        <trkpt lat="28.7265942" lon="105.281446"><ele>409.96</ele><time>2026-01-09T20:44:03.000Z</time></trkpt>
        <trkpt lat="28.7266839" lon="105.2814834"><ele>409.93</ele><time>2026-01-09T20:44:10.000Z</time></trkpt>
        <trkpt lat="28.7267801" lon="105.2815106"><ele>409.9</ele><time>2026-01-09T20:44:18.000Z</time></trkpt>
        <trkpt lat="28.7268901" lon="105.2815261"><ele>409.44</ele><time>2026-01-09T20:44:28.000Z</time></trkpt>
        <trkpt lat="28.726988" lon="105.281553"><ele>408.47</ele><time>2026-01-09T20:44:36.000Z</time></trkpt>
        <trkpt lat="28.7270783" lon="105.2815853"><ele>407.53</ele><time>2026-01-09T20:44:44.000Z</time></trkpt>
        <trkpt lat="28.7271784" lon="105.2816045"><ele>405.8</ele><time>2026-01-09T20:44:52.000Z</time></trkpt>
        <trkpt lat="28.7272765" lon="105.2816337"><ele>404.94</ele><time>2026-01-09T20:45:02.000Z</time></trkpt>
        <trkpt lat="28.7273642" lon="105.2816812"><ele>403.58</ele><time>2026-01-09T20:45:10.000Z</time></trkpt>
        <trkpt lat="28.7274563" lon="105.2817295"><ele>401.82</ele><time>2026-01-09T20:45:18.000Z</time></trkpt>
        <trkpt lat="28.7275353" lon="105.2817964"><ele>401.75</ele><time>2026-01-09T20:45:28.000Z</time></trkpt>
        <trkpt lat="28.7276184" lon="105.2818641"><ele>400.6</ele><time>2026-01-09T20:45:38.000Z</time></trkpt>
        <trkpt lat="28.7276914" lon="105.2819329"><ele>400.44</ele><time>2026-01-09T20:45:46.000Z</time></trkpt>
        <trkpt lat="28.7277692" lon="105.2819986"><ele>400.19</ele><time>2026-01-09T20:45:54.000Z</time></trkpt>
        <trkpt lat="28.7278551" lon="105.2820722"><ele>400.68</ele><time>2026-01-09T20:46:04.000Z</time></trkpt>
        <trkpt lat="28.7279325" lon="105.2821469"><ele>401.52</ele><time>2026-01-09T20:46:12.000Z</time></trkpt>
        <trkpt lat="28.7280126" lon="105.2822207"><ele>402.25</ele><time>2026-01-09T20:46:22.000Z</time></trkpt>
        <trkpt lat="28.7281083" lon="105.2822749"><ele>402.45</ele><time>2026-01-09T20:46:32.000Z</time></trkpt>
        <trkpt lat="28.7282097" lon="105.2822821"><ele>402.56</ele><time>2026-01-09T20:46:40.000Z</time></trkpt>
        <trkpt lat="28.7283012" lon="105.282243"><ele>402.93</ele><time>2026-01-09T20:46:48.000Z</time></trkpt>
        <trkpt lat="28.7283807" lon="105.2821785"><ele>403.5</ele><time>2026-01-09T20:46:56.000Z</time></trkpt>
        <trkpt lat="28.7284527" lon="105.282106"><ele>404.39</ele><time>2026-01-09T20:47:04.000Z</time></trkpt>
        <trkpt lat="28.7285325" lon="105.2820322"><ele>405.04</ele><time>2026-01-09T20:47:12.000Z</time></trkpt>
        <trkpt lat="28.7286123" lon="105.2819702"><ele>405.43</ele><time>2026-01-09T20:47:21.000Z</time></trkpt>
        <trkpt lat="28.7286462" lon="105.2819286"><ele>405.63</ele><time>2026-01-09T20:47:22.000Z</time></trkpt>
        <trkpt lat="28.7287255" lon="105.2818915"><ele>407.23</ele><time>2026-01-09T20:47:30.000Z</time></trkpt>
        <trkpt lat="28.7288297" lon="105.281861"><ele>409.42</ele><time>2026-01-09T20:47:39.000Z</time></trkpt>
        <trkpt lat="28.7289417" lon="105.2818514"><ele>410.78</ele><time>2026-01-09T20:47:46.000Z</time></trkpt>
        <trkpt lat="28.7290465" lon="105.2818443"><ele>411.97</ele><time>2026-01-09T20:47:54.000Z</time></trkpt>
        <trkpt lat="28.7291478" lon="105.2818573"><ele>412.36</ele><time>2026-01-09T20:48:02.000Z</time></trkpt>
        <trkpt lat="28.7292401" lon="105.2818822"><ele>412.58</ele><time>2026-01-09T20:48:10.000Z</time></trkpt>
        <trkpt lat="28.7293435" lon="105.2819061"><ele>412.58</ele><time>2026-01-09T20:48:18.000Z</time></trkpt>
        <trkpt lat="28.7294538" lon="105.2819196"><ele>413.6</ele><time>2026-01-09T20:48:26.000Z</time></trkpt>
        <trkpt lat="28.7295593" lon="105.2819368"><ele>412.16</ele><time>2026-01-09T20:48:34.000Z</time></trkpt>
        <trkpt lat="28.7296673" lon="105.2819458"><ele>410.9</ele><time>2026-01-09T20:48:42.000Z</time></trkpt>
        <trkpt lat="28.7297614" lon="105.2819682"><ele>410.14</ele><time>2026-01-09T20:48:51.000Z</time></trkpt>
        <trkpt lat="28.7298508" lon="105.2820053"><ele>409.56</ele><time>2026-01-09T20:49:02.000Z</time></trkpt>
        <trkpt lat="28.7299332" lon="105.2821018"><ele>407.55</ele><time>2026-01-09T20:54:04.000Z</time></trkpt>
        <trkpt lat="28.7300194" lon="105.2821444"><ele>407.11</ele><time>2026-01-09T20:54:12.000Z</time></trkpt>
        <trkpt lat="28.7301085" lon="105.2821677"><ele>405.96</ele><time>2026-01-09T20:54:24.000Z</time></trkpt>
        <trkpt lat="28.7302064" lon="105.2821973"><ele>405.25</ele><time>2026-01-09T20:54:38.000Z</time></trkpt>
        <trkpt lat="28.7303067" lon="105.2822455"><ele>405.32</ele><time>2026-01-09T20:54:46.000Z</time></trkpt>
        <trkpt lat="28.730405" lon="105.2822975"><ele>404.59</ele><time>2026-01-09T20:54:56.000Z</time></trkpt>
        <trkpt lat="28.7304965" lon="105.2823595"><ele>403.74</ele><time>2026-01-09T20:55:10.000Z</time></trkpt>
        <trkpt lat="28.7305541" lon="105.2824665"><ele>402.46</ele><time>2026-01-09T20:55:18.000Z</time></trkpt>
        <trkpt lat="28.730583" lon="105.2825894"><ele>400.21</ele><time>2026-01-09T20:55:28.000Z</time></trkpt>
        <trkpt lat="28.7305913" lon="105.2827132"><ele>400.07</ele><time>2026-01-09T20:55:36.000Z</time></trkpt>
        <trkpt lat="28.7306052" lon="105.2828237"><ele>399.86</ele><time>2026-01-09T20:55:46.000Z</time></trkpt>
        <trkpt lat="28.7306191" lon="105.2829336"><ele>399.93</ele><time>2026-01-09T20:55:54.000Z</time></trkpt>
        <trkpt lat="28.7306488" lon="105.283035"><ele>400.42</ele><time>2026-01-09T20:56:03.000Z</time></trkpt>
        <trkpt lat="28.7306864" lon="105.2831439"><ele>400.77</ele><time>2026-01-09T20:56:12.000Z</time></trkpt>
        <trkpt lat="28.730743" lon="105.2832453"><ele>401.1</ele><time>2026-01-09T20:56:24.000Z</time></trkpt>
        <trkpt lat="28.7307798" lon="105.2833463"><ele>401.28</ele><time>2026-01-09T20:56:48.000Z</time></trkpt>
        <trkpt lat="28.7308192" lon="105.2834607"><ele>401.22</ele><time>2026-01-09T20:56:58.000Z</time></trkpt>
        <trkpt lat="28.7308621" lon="105.2835594"><ele>400.65</ele><time>2026-01-09T20:57:06.000Z</time></trkpt>
        <trkpt lat="28.7309148" lon="105.2836457"><ele>400.43</ele><time>2026-01-09T20:57:16.000Z</time></trkpt>
        <trkpt lat="28.7309821" lon="105.2837149"><ele>400.54</ele><time>2026-01-09T20:57:24.000Z</time></trkpt>
        <trkpt lat="28.7310578" lon="105.2837753"><ele>400.58</ele><time>2026-01-09T20:57:33.000Z</time></trkpt>
        <trkpt lat="28.7311494" lon="105.2838146"><ele>400.86</ele><time>2026-01-09T20:57:40.000Z</time></trkpt>
        <trkpt lat="28.7312391" lon="105.2838513"><ele>402.39</ele><time>2026-01-09T20:57:48.000Z</time></trkpt>
        <trkpt lat="28.7313391" lon="105.283895"><ele>402.41</ele><time>2026-01-09T20:57:58.000Z</time></trkpt>
        <trkpt lat="28.7314285" lon="105.2839452"><ele>401.64</ele><time>2026-01-09T20:58:06.000Z</time></trkpt>
        <trkpt lat="28.7315162" lon="105.2839991"><ele>401.69</ele><time>2026-01-09T20:58:14.000Z</time></trkpt>
        <trkpt lat="28.7315742" lon="105.2840907"><ele>402.68</ele><time>2026-01-09T20:58:22.000Z</time></trkpt>
        <trkpt lat="28.7316091" lon="105.2842032"><ele>403.03</ele><time>2026-01-09T20:58:32.000Z</time></trkpt>
        <trkpt lat="28.7316435" lon="105.2843081"><ele>403.5</ele><time>2026-01-09T20:58:40.000Z</time></trkpt>
        <trkpt lat="28.7316838" lon="105.2844064"><ele>403.58</ele><time>2026-01-09T20:58:48.000Z</time></trkpt>
        <trkpt lat="28.7317247" lon="105.2845179"><ele>403.74</ele><time>2026-01-09T20:59:04.000Z</time></trkpt>
        <trkpt lat="28.7317636" lon="105.2846302"><ele>404.35</ele><time>2026-01-09T20:59:12.000Z</time></trkpt>
        <trkpt lat="28.7318029" lon="105.2847416"><ele>404.57</ele><time>2026-01-09T20:59:22.000Z</time></trkpt>
        <trkpt lat="28.7318422" lon="105.2848393"><ele>404.8</ele><time>2026-01-09T20:59:30.000Z</time></trkpt>
        <trkpt lat="28.7319004" lon="105.2849294"><ele>404.92</ele><time>2026-01-09T20:59:42.000Z</time></trkpt>
        <trkpt lat="28.7320019" lon="105.2849849"><ele>403.3</ele><time>2026-01-09T21:00:18.000Z</time></trkpt>
        <trkpt lat="28.7320993" lon="105.2850196"><ele>403.55</ele><time>2026-01-09T21:00:26.000Z</time></trkpt>
        <trkpt lat="28.732198" lon="105.2850258"><ele>403.47</ele><time>2026-01-09T21:00:46.000Z</time></trkpt>
        <trkpt lat="28.7322969" lon="105.2850298"><ele>403.88</ele><time>2026-01-09T21:00:54.000Z</time></trkpt>
        <trkpt lat="28.7323909" lon="105.2850367"><ele>404.26</ele><time>2026-01-09T21:01:02.000Z</time></trkpt>
        <trkpt lat="28.7324927" lon="105.2850408"><ele>404.71</ele><time>2026-01-09T21:01:38.000Z</time></trkpt>
        <trkpt lat="28.7326083" lon="105.2850389"><ele>405.34</ele><time>2026-01-09T21:01:46.000Z</time></trkpt>
        <trkpt lat="28.7327214" lon="105.2850388"><ele>405.96</ele><time>2026-01-09T21:01:56.000Z</time></trkpt>
        <trkpt lat="28.7328348" lon="105.2850303"><ele>406.44</ele><time>2026-01-09T21:02:06.000Z</time></trkpt>
        <trkpt lat="28.7329503" lon="105.2850182"><ele>406.96</ele><time>2026-01-09T21:02:14.000Z</time></trkpt>
        <trkpt lat="28.7330545" lon="105.2850209"><ele>407.22</ele><time>2026-01-09T21:02:22.000Z</time></trkpt>
        <trkpt lat="28.7331558" lon="105.2850405"><ele>407.6</ele><time>2026-01-09T21:02:30.000Z</time></trkpt>
        <trkpt lat="28.7332644" lon="105.2850611"><ele>407.91</ele><time>2026-01-09T21:02:39.000Z</time></trkpt>
        <trkpt lat="28.73336" lon="105.2851333"><ele>407.63</ele><time>2026-01-09T21:02:46.000Z</time></trkpt>
        <trkpt lat="28.733432" lon="105.2852366"><ele>407.53</ele><time>2026-01-09T21:02:54.000Z</time></trkpt>
        <trkpt lat="28.7334955" lon="105.2853503"><ele>407.03</ele><time>2026-01-09T21:03:02.000Z</time></trkpt>
        <trkpt lat="28.733561" lon="105.2854479"><ele>406.17</ele><time>2026-01-09T21:03:10.000Z</time></trkpt>
        <trkpt lat="28.7336215" lon="105.2855334"><ele>405.38</ele><time>2026-01-09T21:03:18.000Z</time></trkpt>
        <trkpt lat="28.7336786" lon="105.2856245"><ele>404.11</ele><time>2026-01-09T21:03:26.000Z</time></trkpt>
        <trkpt lat="28.7337322" lon="105.285714"><ele>402.89</ele><time>2026-01-09T21:03:34.000Z</time></trkpt>
        <trkpt lat="28.7337823" lon="105.2858033"><ele>401.62</ele><time>2026-01-09T21:03:42.000Z</time></trkpt>
        <trkpt lat="28.733836" lon="105.2859076"><ele>400.6</ele><time>2026-01-09T21:03:54.000Z</time></trkpt>
        <trkpt lat="28.733889" lon="105.2860012"><ele>399.75</ele><time>2026-01-09T21:04:02.000Z</time></trkpt>
        <trkpt lat="28.7339471" lon="105.2860904"><ele>399.09</ele><time>2026-01-09T21:04:10.000Z</time></trkpt>
        <trkpt lat="28.7340084" lon="105.286175"><ele>398.78</ele><time>2026-01-09T21:04:18.000Z</time></trkpt>
        <trkpt lat="28.7340818" lon="105.2862481"><ele>398.29</ele><time>2026-01-09T21:04:27.000Z</time></trkpt>
        <trkpt lat="28.7341732" lon="105.2863128"><ele>397.96</ele><time>2026-01-09T21:04:36.000Z</time></trkpt>
        <trkpt lat="28.7342606" lon="105.2863639"><ele>397.76</ele><time>2026-01-09T21:04:45.000Z</time></trkpt>
        <trkpt lat="28.7343624" lon="105.286383"><ele>397.6</ele><time>2026-01-09T21:04:54.000Z</time></trkpt>
        <trkpt lat="28.7344687" lon="105.2863725"><ele>397.23</ele><time>2026-01-09T21:05:06.000Z</time></trkpt>
        <trkpt lat="28.7345733" lon="105.2863608"><ele>396.5</ele><time>2026-01-09T21:05:24.000Z</time></trkpt>
        <trkpt lat="28.734684" lon="105.2863628"><ele>395.63</ele><time>2026-01-09T21:05:32.000Z</time></trkpt>
        <trkpt lat="28.7347795" lon="105.2863927"><ele>394.64</ele><time>2026-01-09T21:05:40.000Z</time></trkpt>
        <trkpt lat="28.7348653" lon="105.28644"><ele>393.83</ele><time>2026-01-09T21:05:48.000Z</time></trkpt>
        <trkpt lat="28.7349453" lon="105.2864959"><ele>392.8</ele><time>2026-01-09T21:05:57.000Z</time></trkpt>
        <trkpt lat="28.7350337" lon="105.2865627"><ele>392.18</ele><time>2026-01-09T21:06:06.000Z</time></trkpt>
        <trkpt lat="28.7351118" lon="105.2866265"><ele>391.35</ele><time>2026-01-09T21:06:12.000Z</time></trkpt>
        <trkpt lat="28.7351971" lon="105.2866587"><ele>390.58</ele><time>2026-01-09T21:06:20.000Z</time></trkpt>
        <trkpt lat="28.7352902" lon="105.2866607"><ele>390.38</ele><time>2026-01-09T21:06:28.000Z</time></trkpt>
        <trkpt lat="28.7354007" lon="105.2866556"><ele>390.11</ele><time>2026-01-09T21:06:36.000Z</time></trkpt>
        <trkpt lat="28.735505" lon="105.2866383"><ele>389.94</ele><time>2026-01-09T21:06:46.000Z</time></trkpt>
        <trkpt lat="28.7355811" lon="105.2865756"><ele>389.93</ele><time>2026-01-09T21:06:54.000Z</time></trkpt>
        <trkpt lat="28.7356014" lon="105.2864618"><ele>390.12</ele><time>2026-01-09T21:07:02.000Z</time></trkpt>
        <trkpt lat="28.7355887" lon="105.2863293"><ele>390.13</ele><time>2026-01-09T21:07:10.000Z</time></trkpt>
        <trkpt lat="28.7356292" lon="105.2862337"><ele>389.56</ele><time>2026-01-09T21:07:28.000Z</time></trkpt>
        <trkpt lat="28.7356656" lon="105.2861331"><ele>387.72</ele><time>2026-01-09T21:07:38.000Z</time></trkpt>
        <trkpt lat="28.7357108" lon="105.2860145"><ele>386.2</ele><time>2026-01-09T21:07:46.000Z</time></trkpt>
        <trkpt lat="28.7357484" lon="105.2858988"><ele>384.99</ele><time>2026-01-09T21:07:54.000Z</time></trkpt>
        <trkpt lat="28.7358107" lon="105.2858157"><ele>384.53</ele><time>2026-01-09T21:08:04.000Z</time></trkpt>
        <trkpt lat="28.7358827" lon="105.2857305"><ele>384.16</ele><time>2026-01-09T21:08:14.000Z</time></trkpt>
        <trkpt lat="28.7359653" lon="105.2856487"><ele>383.58</ele><time>2026-01-09T21:08:22.000Z</time></trkpt>
        <trkpt lat="28.7360548" lon="105.2855717"><ele>383.34</ele><time>2026-01-09T21:08:30.000Z</time></trkpt>
        <trkpt lat="28.7361353" lon="105.2855061"><ele>383.24</ele><time>2026-01-09T21:08:39.000Z</time></trkpt>
        <trkpt lat="28.7362302" lon="105.2854505"><ele>383.81</ele><time>2026-01-09T21:08:48.000Z</time></trkpt>
        <trkpt lat="28.7363124" lon="105.2853933"><ele>384.08</ele><time>2026-01-09T21:08:57.000Z</time></trkpt>
        <trkpt lat="28.7364105" lon="105.2853389"><ele>383.49</ele><time>2026-01-09T21:09:06.000Z</time></trkpt>
        <trkpt lat="28.7364921" lon="105.285265"><ele>382.32</ele><time>2026-01-09T21:09:16.000Z</time></trkpt>
        <trkpt lat="28.7365822" lon="105.285207"><ele>380.77</ele><time>2026-01-09T21:09:24.000Z</time></trkpt>
        <trkpt lat="28.7366695" lon="105.285161"><ele>379.7</ele><time>2026-01-09T21:09:33.000Z</time></trkpt>
        <trkpt lat="28.7367566" lon="105.2851257"><ele>378.6</ele><time>2026-01-09T21:09:38.000Z</time></trkpt>
        <trkpt lat="28.7368523" lon="105.28508"><ele>377.84</ele><time>2026-01-09T21:09:46.000Z</time></trkpt>
        <trkpt lat="28.7369402" lon="105.2850971"><ele>377.01</ele><time>2026-01-09T21:10:04.000Z</time></trkpt>
        <trkpt lat="28.7370316" lon="105.2851308"><ele>374.89</ele><time>2026-01-09T21:10:34.000Z</time></trkpt>
        <trkpt lat="28.7371447" lon="105.2851006"><ele>371.28</ele><time>2026-01-09T21:11:44.000Z</time></trkpt>
        <trkpt lat="28.7372421" lon="105.2851144"><ele>365.26</ele><time>2026-01-09T21:12:46.000Z</time></trkpt>
        <trkpt lat="28.7373347" lon="105.2850969"><ele>359.28</ele><time>2026-01-09T21:13:18.000Z</time></trkpt>
        <trkpt lat="28.7374272" lon="105.2850825"><ele>354.76</ele><time>2026-01-09T21:13:30.000Z</time></trkpt>
        <trkpt lat="28.7375203" lon="105.2850411"><ele>351.77</ele><time>2026-01-09T21:13:42.000Z</time></trkpt>
        <trkpt lat="28.7375655" lon="105.2851387"><ele>349.16</ele><time>2026-01-09T21:14:46.000Z</time></trkpt>
        <trkpt lat="28.7376557" lon="105.2851416"><ele>344.42</ele><time>2026-01-09T21:15:56.000Z</time></trkpt>
        <trkpt lat="28.7377407" lon="105.285108"><ele>338.57</ele><time>2026-01-09T21:16:26.000Z</time></trkpt>
        <trkpt lat="28.737757" lon="105.2851931"><ele>335.01</ele><time>2026-01-09T21:16:58.000Z</time></trkpt>
        <trkpt lat="28.7378286" lon="105.2852224"><ele>330.81</ele><time>2026-01-09T21:17:18.000Z</time></trkpt>
        <trkpt lat="28.7379172" lon="105.2852335"><ele>326.91</ele><time>2026-01-09T21:17:39.000Z</time></trkpt>
        <trkpt lat="28.7380085" lon="105.2852124"><ele>323.48</ele><time>2026-01-09T21:18:06.000Z</time></trkpt>
        <trkpt lat="28.7381025" lon="105.2851557"><ele>319.21</ele><time>2026-01-09T21:19:44.000Z</time></trkpt>
        <trkpt lat="28.7381893" lon="105.2851143"><ele>314.74</ele><time>2026-01-09T21:20:06.000Z</time></trkpt>
        <trkpt lat="28.7382725" lon="105.2850567"><ele>312.09</ele><time>2026-01-09T21:21:02.000Z</time></trkpt>
        <trkpt lat="28.7383625" lon="105.2850354"><ele>309.58</ele><time>2026-01-09T21:21:30.000Z</time></trkpt>
        <trkpt lat="28.7384617" lon="105.2849983"><ele>306.95</ele><time>2026-01-09T21:21:46.000Z</time></trkpt>
        <trkpt lat="28.7385632" lon="105.2849989"><ele>304.43</ele><time>2026-01-09T21:23:20.000Z</time></trkpt>
        <trkpt lat="28.7386075" lon="105.2849893"><ele>300.82</ele><time>2026-01-09T21:23:30.000Z</time></trkpt>
        <trkpt lat="28.738691" lon="105.2849712"><ele>298.18</ele><time>2026-01-09T21:24:10.000Z</time></trkpt>
        <trkpt lat="28.7387858" lon="105.2849524"><ele>295.67</ele><time>2026-01-09T21:24:30.000Z</time></trkpt>
        <trkpt lat="28.7388782" lon="105.2849686"><ele>293.25</ele><time>2026-01-09T21:25:00.000Z</time></trkpt>
        <trkpt lat="28.7389766" lon="105.2849811"><ele>290.48</ele><time>2026-01-09T21:25:16.000Z</time></trkpt>
        <trkpt lat="28.7390704" lon="105.284997"><ele>287.57</ele><time>2026-01-09T21:25:24.000Z</time></trkpt>
        <trkpt lat="28.7391668" lon="105.285008"><ele>285.1</ele><time>2026-01-09T21:25:42.000Z</time></trkpt>
        <trkpt lat="28.7392607" lon="105.2850094"><ele>281.67</ele><time>2026-01-09T21:26:08.000Z</time></trkpt>
        <trkpt lat="28.7393536" lon="105.2850115"><ele>278.42</ele><time>2026-01-09T21:26:30.000Z</time></trkpt>
        <trkpt lat="28.7394441" lon="105.2850044"><ele>274.82</ele><time>2026-01-09T21:26:54.000Z</time></trkpt>
        <trkpt lat="28.7395334" lon="105.2850135"><ele>270.64</ele><time>2026-01-09T21:27:16.000Z</time></trkpt>
        <trkpt lat="28.7396273" lon="105.2850401"><ele>266.05</ele><time>2026-01-09T21:27:26.000Z</time></trkpt>
        <trkpt lat="28.7397252" lon="105.2850619"><ele>262.25</ele><time>2026-01-09T21:27:51.000Z</time></trkpt>
        <trkpt lat="28.7398244" lon="105.2850943"><ele>258.38</ele><time>2026-01-09T21:28:04.000Z</time></trkpt>
        <trkpt lat="28.739918" lon="105.2851112"><ele>254.22</ele><time>2026-01-09T21:28:18.000Z</time></trkpt>
        <trkpt lat="28.7400177" lon="105.2851253"><ele>250.47</ele><time>2026-01-09T21:28:32.000Z</time></trkpt>
        <trkpt lat="28.7401148" lon="105.2851344"><ele>247.32</ele><time>2026-01-09T21:28:46.000Z</time></trkpt>
        <trkpt lat="28.7402113" lon="105.2851363"><ele>244.64</ele><time>2026-01-09T21:29:03.000Z</time></trkpt>
        <trkpt lat="28.7403259" lon="105.2851312"><ele>242.36</ele><time>2026-01-09T21:29:10.000Z</time></trkpt>
        <trkpt lat="28.7404288" lon="105.2850781"><ele>240.46</ele><time>2026-01-09T21:29:21.000Z</time></trkpt>
        <trkpt lat="28.7405278" lon="105.2850191"><ele>238.5</ele><time>2026-01-09T21:29:28.000Z</time></trkpt>
        <trkpt lat="28.7406233" lon="105.2850059"><ele>236.45</ele><time>2026-01-09T21:29:36.000Z</time></trkpt>
        <trkpt lat="28.7407175" lon="105.2850027"><ele>234.79</ele><time>2026-01-09T21:29:46.000Z</time></trkpt>
        <trkpt lat="28.7408135" lon="105.2850068"><ele>233.07</ele><time>2026-01-09T21:29:57.000Z</time></trkpt>
        <trkpt lat="28.740911" lon="105.2850089"><ele>231.03</ele><time>2026-01-09T21:30:06.000Z</time></trkpt>
        <trkpt lat="28.7410068" lon="105.2850319"><ele>228.96</ele><time>2026-01-09T21:30:18.000Z</time></trkpt>
        <trkpt lat="28.7410951" lon="105.285064"><ele>226.82</ele><time>2026-01-09T21:30:30.000Z</time></trkpt>
        <trkpt lat="28.7411883" lon="105.2850778"><ele>225.12</ele><time>2026-01-09T21:30:44.000Z</time></trkpt>
        <trkpt lat="28.7412988" lon="105.2851049"><ele>223.38</ele><time>2026-01-09T21:31:10.000Z</time></trkpt>
        <trkpt lat="28.7413787" lon="105.2850616"><ele>220.84</ele><time>2026-01-09T21:31:40.000Z</time></trkpt>
        <trkpt lat="28.7413787" lon="105.2850616"><ele>220.84</ele><time>2026-01-09T21:32:20.000Z</time></trkpt>
      </trkseg>
  </trk>
</gpx>